<?xml version="1.0" encoding="UTF-8" standalone="no" ?>
<gpx xmlns="http://www.topografix.com/GPX/1/1" xmlns:xsi="http://www.w3.org/2001/XMLSchema-instance" xsi:schemaLocation="http://www.topografix.com/GPX/1/1 http://www.topografix.com/GPX/1/1/gpx.xsd" version="1.1" creator="VisuGPX - https://www.visugpx.com">
  <metadata>
    <name>Grottes de la Jaubernie</name>
    <desc><![CDATA[File with points/tracks from Locus Map/3.36.2]]></desc>
  </metadata>
  <trk>
    <name><![CDATA[2019-02-28 09:01:48]]></name>
    <trkseg>
      <trkpt lat="44.74872" lon="4.62786">
        <ele>380.04</ele>
        <time>2019-02-28T08:01:48.000Z</time>
      </trkpt>
      <trkpt lat="44.74869" lon="4.62762">
        <ele>374.8</ele>
        <time>2019-02-28T08:02:08.000Z</time>
      </trkpt>
      <trkpt lat="44.74882" lon="4.62757">
        <ele>377.05</ele>
        <time>2019-02-28T08:02:33.000Z</time>
      </trkpt>
      <trkpt lat="44.74898" lon="4.62756">
        <ele>379.71</ele>
        <time>2019-02-28T08:02:53.000Z</time>
      </trkpt>
      <trkpt lat="44.74912" lon="4.62749">
        <ele>379.75</ele>
        <time>2019-02-28T08:03:13.000Z</time>
      </trkpt>
      <trkpt lat="44.74925" lon="4.62754">
        <ele>385.66</ele>
        <time>2019-02-28T08:03:33.000Z</time>
      </trkpt>
      <trkpt lat="44.74942" lon="4.62756">
        <ele>388.48</ele>
        <time>2019-02-28T08:03:53.000Z</time>
      </trkpt>
      <trkpt lat="44.74955" lon="4.62764">
        <ele>391.84</ele>
        <time>2019-02-28T08:04:19.000Z</time>
      </trkpt>
      <trkpt lat="44.74966" lon="4.62775">
        <ele>400.91</ele>
        <time>2019-02-28T08:04:48.000Z</time>
      </trkpt>
      <trkpt lat="44.74983" lon="4.62779">
        <ele>406.25</ele>
        <time>2019-02-28T08:05:08.000Z</time>
      </trkpt>
      <trkpt lat="44.74998" lon="4.62787">
        <ele>413.4</ele>
        <time>2019-02-28T08:05:28.000Z</time>
      </trkpt>
      <trkpt lat="44.75011" lon="4.62794">
        <ele>425.47</ele>
        <time>2019-02-28T08:05:48.000Z</time>
      </trkpt>
      <trkpt lat="44.75023" lon="4.62807">
        <ele>434.72</ele>
        <time>2019-02-28T08:06:15.000Z</time>
      </trkpt>
      <trkpt lat="44.75031" lon="4.62827">
        <ele>434.55</ele>
        <time>2019-02-28T08:06:35.000Z</time>
      </trkpt>
      <trkpt lat="44.75043" lon="4.62844">
        <ele>436.02</ele>
        <time>2019-02-28T08:06:55.000Z</time>
      </trkpt>
      <trkpt lat="44.75052" lon="4.62858">
        <ele>435.56</ele>
        <time>2019-02-28T08:07:24.000Z</time>
      </trkpt>
      <trkpt lat="44.75063" lon="4.62879">
        <ele>440.59</ele>
        <time>2019-02-28T08:07:44.000Z</time>
      </trkpt>
      <trkpt lat="44.7507" lon="4.629">
        <ele>445.7</ele>
        <time>2019-02-28T08:08:04.000Z</time>
      </trkpt>
      <trkpt lat="44.75088" lon="4.62923">
        <ele>451.03</ele>
        <time>2019-02-28T08:08:24.000Z</time>
      </trkpt>
      <trkpt lat="44.75106" lon="4.62944">
        <ele>446.02</ele>
        <time>2019-02-28T08:08:44.000Z</time>
      </trkpt>
      <trkpt lat="44.75105" lon="4.62967">
        <ele>446.28</ele>
        <time>2019-02-28T08:09:04.000Z</time>
      </trkpt>
      <trkpt lat="44.75109" lon="4.62995">
        <ele>443.79</ele>
        <time>2019-02-28T08:09:24.000Z</time>
      </trkpt>
      <trkpt lat="44.75123" lon="4.63012">
        <ele>448.74</ele>
        <time>2019-02-28T08:09:44.000Z</time>
      </trkpt>
      <trkpt lat="44.75138" lon="4.63024">
        <ele>454.71</ele>
        <time>2019-02-28T08:10:04.000Z</time>
      </trkpt>
      <trkpt lat="44.75168" lon="4.63047">
        <ele>460.69</ele>
        <time>2019-02-28T08:10:24.000Z</time>
      </trkpt>
      <trkpt lat="44.75178" lon="4.63062">
        <ele>458.61</ele>
        <time>2019-02-28T08:10:46.000Z</time>
      </trkpt>
      <trkpt lat="44.75203" lon="4.63087">
        <ele>460.66</ele>
        <time>2019-02-28T08:11:06.000Z</time>
      </trkpt>
      <trkpt lat="44.75213" lon="4.631">
        <ele>460.95</ele>
        <time>2019-02-28T08:11:30.000Z</time>
      </trkpt>
      <trkpt lat="44.75235" lon="4.63127">
        <ele>462.6</ele>
        <time>2019-02-28T08:11:50.000Z</time>
      </trkpt>
      <trkpt lat="44.75247" lon="4.63151">
        <ele>468.76</ele>
        <time>2019-02-28T08:12:10.000Z</time>
      </trkpt>
      <trkpt lat="44.7527" lon="4.6317">
        <ele>472.52</ele>
        <time>2019-02-28T08:12:30.000Z</time>
      </trkpt>
      <trkpt lat="44.75298" lon="4.6318">
        <ele>471.79</ele>
        <time>2019-02-28T08:12:50.000Z</time>
      </trkpt>
      <trkpt lat="44.75314" lon="4.63199">
        <ele>468.11</ele>
        <time>2019-02-28T08:13:10.000Z</time>
      </trkpt>
      <trkpt lat="44.75316" lon="4.63228">
        <ele>462.82</ele>
        <time>2019-02-28T08:13:30.000Z</time>
      </trkpt>
      <trkpt lat="44.75323" lon="4.63257">
        <ele>461.05</ele>
        <time>2019-02-28T08:13:50.000Z</time>
      </trkpt>
      <trkpt lat="44.75333" lon="4.63294">
        <ele>471.81</ele>
        <time>2019-02-28T08:14:10.000Z</time>
      </trkpt>
      <trkpt lat="44.75337" lon="4.63319">
        <ele>464.55</ele>
        <time>2019-02-28T08:14:30.000Z</time>
      </trkpt>
      <trkpt lat="44.75328" lon="4.63338">
        <ele>462.75</ele>
        <time>2019-02-28T08:14:50.000Z</time>
      </trkpt>
      <trkpt lat="44.75306" lon="4.63376">
        <ele>468.1</ele>
        <time>2019-02-28T08:15:10.000Z</time>
      </trkpt>
      <trkpt lat="44.75297" lon="4.63398">
        <ele>470.72</ele>
        <time>2019-02-28T08:15:30.000Z</time>
      </trkpt>
      <trkpt lat="44.75309" lon="4.63428">
        <ele>467.69</ele>
        <time>2019-02-28T08:15:50.000Z</time>
      </trkpt>
      <trkpt lat="44.75328" lon="4.63456">
        <ele>463.55</ele>
        <time>2019-02-28T08:16:10.000Z</time>
      </trkpt>
      <trkpt lat="44.75348" lon="4.63468">
        <ele>468.61</ele>
        <time>2019-02-28T08:16:30.000Z</time>
      </trkpt>
      <trkpt lat="44.75361" lon="4.63472">
        <ele>475.04</ele>
        <time>2019-02-28T08:17:02.000Z</time>
      </trkpt>
      <trkpt lat="44.75375" lon="4.63469">
        <ele>470.55</ele>
        <time>2019-02-28T08:19:09.000Z</time>
      </trkpt>
      <trkpt lat="44.75393" lon="4.63461">
        <ele>468.79</ele>
        <time>2019-02-28T08:19:29.000Z</time>
      </trkpt>
      <trkpt lat="44.75416" lon="4.63459">
        <ele>472.05</ele>
        <time>2019-02-28T08:19:49.000Z</time>
      </trkpt>
      <trkpt lat="44.75442" lon="4.63453">
        <ele>476.73</ele>
        <time>2019-02-28T08:20:09.000Z</time>
      </trkpt>
      <trkpt lat="44.75459" lon="4.63453">
        <ele>475</ele>
        <time>2019-02-28T08:20:29.000Z</time>
      </trkpt>
      <trkpt lat="44.75482" lon="4.63451">
        <ele>477.78</ele>
        <time>2019-02-28T08:20:49.000Z</time>
      </trkpt>
      <trkpt lat="44.75504" lon="4.6346">
        <ele>485.79</ele>
        <time>2019-02-28T08:21:09.000Z</time>
      </trkpt>
      <trkpt lat="44.7552" lon="4.63466">
        <ele>486.98</ele>
        <time>2019-02-28T08:21:29.000Z</time>
      </trkpt>
      <trkpt lat="44.75549" lon="4.63474">
        <ele>484.05</ele>
        <time>2019-02-28T08:21:49.000Z</time>
      </trkpt>
      <trkpt lat="44.75573" lon="4.63488">
        <ele>481.8</ele>
        <time>2019-02-28T08:22:09.000Z</time>
      </trkpt>
      <trkpt lat="44.75593" lon="4.63493">
        <ele>477.62</ele>
        <time>2019-02-28T08:22:29.000Z</time>
      </trkpt>
      <trkpt lat="44.75627" lon="4.63508">
        <ele>478.03</ele>
        <time>2019-02-28T08:22:49.000Z</time>
      </trkpt>
      <trkpt lat="44.75642" lon="4.63521">
        <ele>482.8</ele>
        <time>2019-02-28T08:23:09.000Z</time>
      </trkpt>
      <trkpt lat="44.75665" lon="4.63533">
        <ele>477.84</ele>
        <time>2019-02-28T08:23:29.000Z</time>
      </trkpt>
      <trkpt lat="44.75682" lon="4.63546">
        <ele>480.8</ele>
        <time>2019-02-28T08:23:49.000Z</time>
      </trkpt>
      <trkpt lat="44.757" lon="4.63565">
        <ele>483.72</ele>
        <time>2019-02-28T08:24:09.000Z</time>
      </trkpt>
      <trkpt lat="44.75685" lon="4.63592">
        <ele>486.3</ele>
        <time>2019-02-28T08:24:29.000Z</time>
      </trkpt>
      <trkpt lat="44.75672" lon="4.63611">
        <ele>482.86</ele>
        <time>2019-02-28T08:24:49.000Z</time>
      </trkpt>
      <trkpt lat="44.75656" lon="4.63639">
        <ele>483.77</ele>
        <time>2019-02-28T08:25:09.000Z</time>
      </trkpt>
      <trkpt lat="44.75642" lon="4.63668">
        <ele>486.05</ele>
        <time>2019-02-28T08:25:29.000Z</time>
      </trkpt>
      <trkpt lat="44.75634" lon="4.637">
        <ele>486.99</ele>
        <time>2019-02-28T08:25:49.000Z</time>
      </trkpt>
      <trkpt lat="44.7563" lon="4.63734">
        <ele>487.35</ele>
        <time>2019-02-28T08:26:09.000Z</time>
      </trkpt>
      <trkpt lat="44.75614" lon="4.63753">
        <ele>486.78</ele>
        <time>2019-02-28T08:26:29.000Z</time>
      </trkpt>
      <trkpt lat="44.75595" lon="4.63774">
        <ele>490.58</ele>
        <time>2019-02-28T08:26:49.000Z</time>
      </trkpt>
      <trkpt lat="44.75581" lon="4.63798">
        <ele>484.74</ele>
        <time>2019-02-28T08:27:09.000Z</time>
      </trkpt>
      <trkpt lat="44.75566" lon="4.63825">
        <ele>485.75</ele>
        <time>2019-02-28T08:27:29.000Z</time>
      </trkpt>
      <trkpt lat="44.75549" lon="4.6385">
        <ele>492.37</ele>
        <time>2019-02-28T08:27:49.000Z</time>
      </trkpt>
      <trkpt lat="44.75537" lon="4.63878">
        <ele>495.83</ele>
        <time>2019-02-28T08:28:09.000Z</time>
      </trkpt>
      <trkpt lat="44.75527" lon="4.63902">
        <ele>489.07</ele>
        <time>2019-02-28T08:28:29.000Z</time>
      </trkpt>
      <trkpt lat="44.7551" lon="4.63937">
        <ele>495.76</ele>
        <time>2019-02-28T08:28:49.000Z</time>
      </trkpt>
      <trkpt lat="44.75506" lon="4.63962">
        <ele>492.41</ele>
        <time>2019-02-28T08:29:09.000Z</time>
      </trkpt>
      <trkpt lat="44.75498" lon="4.63998">
        <ele>494.82</ele>
        <time>2019-02-28T08:29:29.000Z</time>
      </trkpt>
      <trkpt lat="44.75498" lon="4.64029">
        <ele>496.87</ele>
        <time>2019-02-28T08:29:49.000Z</time>
      </trkpt>
      <trkpt lat="44.7549" lon="4.64069">
        <ele>500.78</ele>
        <time>2019-02-28T08:30:09.000Z</time>
      </trkpt>
      <trkpt lat="44.75481" lon="4.64095">
        <ele>504.8</ele>
        <time>2019-02-28T08:30:29.000Z</time>
      </trkpt>
      <trkpt lat="44.755" lon="4.64093">
        <ele>499.19</ele>
        <time>2019-02-28T08:30:49.000Z</time>
      </trkpt>
      <trkpt lat="44.7552" lon="4.64085">
        <ele>499.93</ele>
        <time>2019-02-28T08:31:09.000Z</time>
      </trkpt>
      <trkpt lat="44.75542" lon="4.64069">
        <ele>496.43</ele>
        <time>2019-02-28T08:31:29.000Z</time>
      </trkpt>
      <trkpt lat="44.75562" lon="4.64048">
        <ele>495.43</ele>
        <time>2019-02-28T08:31:49.000Z</time>
      </trkpt>
      <trkpt lat="44.75585" lon="4.64026">
        <ele>500.07</ele>
        <time>2019-02-28T08:32:09.000Z</time>
      </trkpt>
      <trkpt lat="44.75603" lon="4.64018">
        <ele>500.8</ele>
        <time>2019-02-28T08:32:29.000Z</time>
      </trkpt>
      <trkpt lat="44.75634" lon="4.64002">
        <ele>498.02</ele>
        <time>2019-02-28T08:32:49.000Z</time>
      </trkpt>
      <trkpt lat="44.75649" lon="4.63995">
        <ele>499.79</ele>
        <time>2019-02-28T08:33:09.000Z</time>
      </trkpt>
      <trkpt lat="44.7567" lon="4.63985">
        <ele>490.24</ele>
        <time>2019-02-28T08:33:29.000Z</time>
      </trkpt>
      <trkpt lat="44.75692" lon="4.63967">
        <ele>490.52</ele>
        <time>2019-02-28T08:33:49.000Z</time>
      </trkpt>
      <trkpt lat="44.75717" lon="4.63958">
        <ele>495.73</ele>
        <time>2019-02-28T08:34:09.000Z</time>
      </trkpt>
      <trkpt lat="44.75751" lon="4.63956">
        <ele>504.05</ele>
        <time>2019-02-28T08:34:29.000Z</time>
      </trkpt>
      <trkpt lat="44.75777" lon="4.6396">
        <ele>504.8</ele>
        <time>2019-02-28T08:34:49.000Z</time>
      </trkpt>
      <trkpt lat="44.75802" lon="4.63969">
        <ele>505.48</ele>
        <time>2019-02-28T08:35:09.000Z</time>
      </trkpt>
      <trkpt lat="44.75826" lon="4.63981">
        <ele>517.48</ele>
        <time>2019-02-28T08:35:29.000Z</time>
      </trkpt>
      <trkpt lat="44.75836" lon="4.64003">
        <ele>509.33</ele>
        <time>2019-02-28T08:35:49.000Z</time>
      </trkpt>
      <trkpt lat="44.75834" lon="4.64037">
        <ele>504.04</ele>
        <time>2019-02-28T08:36:09.000Z</time>
      </trkpt>
      <trkpt lat="44.75826" lon="4.64065">
        <ele>510.31</ele>
        <time>2019-02-28T08:36:29.000Z</time>
      </trkpt>
      <trkpt lat="44.75828" lon="4.64098">
        <ele>512.17</ele>
        <time>2019-02-28T08:36:49.000Z</time>
      </trkpt>
      <trkpt lat="44.75843" lon="4.64116">
        <ele>513.99</ele>
        <time>2019-02-28T08:37:09.000Z</time>
      </trkpt>
      <trkpt lat="44.75856" lon="4.64136">
        <ele>518.74</ele>
        <time>2019-02-28T08:37:29.000Z</time>
      </trkpt>
      <trkpt lat="44.75874" lon="4.64165">
        <ele>522</ele>
        <time>2019-02-28T08:37:49.000Z</time>
      </trkpt>
      <trkpt lat="44.75885" lon="4.64188">
        <ele>531.92</ele>
        <time>2019-02-28T08:38:09.000Z</time>
      </trkpt>
      <trkpt lat="44.75909" lon="4.64206">
        <ele>526.05</ele>
        <time>2019-02-28T08:38:29.000Z</time>
      </trkpt>
      <trkpt lat="44.7592" lon="4.64235">
        <ele>533.99</ele>
        <time>2019-02-28T08:38:49.000Z</time>
      </trkpt>
      <trkpt lat="44.75924" lon="4.64265">
        <ele>531.81</ele>
        <time>2019-02-28T08:39:09.000Z</time>
      </trkpt>
      <trkpt lat="44.7593" lon="4.64296">
        <ele>538.56</ele>
        <time>2019-02-28T08:39:29.000Z</time>
      </trkpt>
      <trkpt lat="44.75949" lon="4.64318">
        <ele>534.06</ele>
        <time>2019-02-28T08:39:49.000Z</time>
      </trkpt>
      <trkpt lat="44.75969" lon="4.64334">
        <ele>536.08</ele>
        <time>2019-02-28T08:40:09.000Z</time>
      </trkpt>
      <trkpt lat="44.75986" lon="4.64345">
        <ele>537.42</ele>
        <time>2019-02-28T08:40:29.000Z</time>
      </trkpt>
      <trkpt lat="44.75974" lon="4.64365">
        <ele>540.81</ele>
        <time>2019-02-28T08:40:49.000Z</time>
      </trkpt>
      <trkpt lat="44.75966" lon="4.64393">
        <ele>545.5</ele>
        <time>2019-02-28T08:41:09.000Z</time>
      </trkpt>
      <trkpt lat="44.75967" lon="4.64426">
        <ele>545.06</ele>
        <time>2019-02-28T08:41:29.000Z</time>
      </trkpt>
      <trkpt lat="44.75983" lon="4.64447">
        <ele>547.05</ele>
        <time>2019-02-28T08:41:49.000Z</time>
      </trkpt>
      <trkpt lat="44.76006" lon="4.64464">
        <ele>552.82</ele>
        <time>2019-02-28T08:42:09.000Z</time>
      </trkpt>
      <trkpt lat="44.76006" lon="4.64499">
        <ele>549.76</ele>
        <time>2019-02-28T08:42:29.000Z</time>
      </trkpt>
      <trkpt lat="44.75998" lon="4.64518">
        <ele>555.58</ele>
        <time>2019-02-28T08:44:22.000Z</time>
      </trkpt>
      <trkpt lat="44.75991" lon="4.64537">
        <ele>558.78</ele>
        <time>2019-02-28T08:44:42.000Z</time>
      </trkpt>
      <trkpt lat="44.75985" lon="4.64563">
        <ele>561.21</ele>
        <time>2019-02-28T08:45:02.000Z</time>
      </trkpt>
      <trkpt lat="44.7598" lon="4.64585">
        <ele>561.19</ele>
        <time>2019-02-28T08:45:22.000Z</time>
      </trkpt>
      <trkpt lat="44.7597" lon="4.64612">
        <ele>560.3</ele>
        <time>2019-02-28T08:45:42.000Z</time>
      </trkpt>
      <trkpt lat="44.75957" lon="4.64633">
        <ele>560.81</ele>
        <time>2019-02-28T08:46:02.000Z</time>
      </trkpt>
      <trkpt lat="44.75947" lon="4.64655">
        <ele>561.68</ele>
        <time>2019-02-28T08:46:22.000Z</time>
      </trkpt>
      <trkpt lat="44.75937" lon="4.64675">
        <ele>561.77</ele>
        <time>2019-02-28T08:46:42.000Z</time>
      </trkpt>
      <trkpt lat="44.75926" lon="4.64699">
        <ele>564.58</ele>
        <time>2019-02-28T08:47:02.000Z</time>
      </trkpt>
      <trkpt lat="44.75926" lon="4.64721">
        <ele>568.87</ele>
        <time>2019-02-28T08:47:22.000Z</time>
      </trkpt>
      <trkpt lat="44.75939" lon="4.64711">
        <ele>566.82</ele>
        <time>2019-02-28T08:47:42.000Z</time>
      </trkpt>
      <trkpt lat="44.75954" lon="4.64704">
        <ele>567</ele>
        <time>2019-02-28T08:48:02.000Z</time>
      </trkpt>
      <trkpt lat="44.75975" lon="4.64712">
        <ele>575.69</ele>
        <time>2019-02-28T08:48:22.000Z</time>
      </trkpt>
      <trkpt lat="44.7599" lon="4.64716">
        <ele>576.38</ele>
        <time>2019-02-28T08:48:42.000Z</time>
      </trkpt>
      <trkpt lat="44.76008" lon="4.64727">
        <ele>577.68</ele>
        <time>2019-02-28T08:49:02.000Z</time>
      </trkpt>
      <trkpt lat="44.76024" lon="4.64732">
        <ele>573.74</ele>
        <time>2019-02-28T08:49:24.000Z</time>
      </trkpt>
      <trkpt lat="44.76045" lon="4.64737">
        <ele>568.94</ele>
        <time>2019-02-28T08:49:44.000Z</time>
      </trkpt>
      <trkpt lat="44.76067" lon="4.64751">
        <ele>566.84</ele>
        <time>2019-02-28T08:50:04.000Z</time>
      </trkpt>
      <trkpt lat="44.76088" lon="4.64764">
        <ele>569.02</ele>
        <time>2019-02-28T08:50:24.000Z</time>
      </trkpt>
      <trkpt lat="44.7611" lon="4.64777">
        <ele>570.13</ele>
        <time>2019-02-28T08:50:44.000Z</time>
      </trkpt>
      <trkpt lat="44.76139" lon="4.64777">
        <ele>559.55</ele>
        <time>2019-02-28T08:51:04.000Z</time>
      </trkpt>
      <trkpt lat="44.7616" lon="4.6478">
        <ele>560.82</ele>
        <time>2019-02-28T08:51:24.000Z</time>
      </trkpt>
      <trkpt lat="44.76181" lon="4.6477">
        <ele>557.75</ele>
        <time>2019-02-28T08:51:44.000Z</time>
      </trkpt>
      <trkpt lat="44.76197" lon="4.64757">
        <ele>558.82</ele>
        <time>2019-02-28T08:52:04.000Z</time>
      </trkpt>
      <trkpt lat="44.76222" lon="4.64739">
        <ele>561.85</ele>
        <time>2019-02-28T08:52:24.000Z</time>
      </trkpt>
      <trkpt lat="44.76248" lon="4.64727">
        <ele>554.78</ele>
        <time>2019-02-28T08:52:44.000Z</time>
      </trkpt>
      <trkpt lat="44.76266" lon="4.6471">
        <ele>547.08</ele>
        <time>2019-02-28T08:53:04.000Z</time>
      </trkpt>
      <trkpt lat="44.76283" lon="4.64681">
        <ele>547.81</ele>
        <time>2019-02-28T08:53:24.000Z</time>
      </trkpt>
      <trkpt lat="44.76298" lon="4.64657">
        <ele>542.08</ele>
        <time>2019-02-28T08:53:44.000Z</time>
      </trkpt>
      <trkpt lat="44.76308" lon="4.64642">
        <ele>539.81</ele>
        <time>2019-02-28T08:54:05.000Z</time>
      </trkpt>
      <trkpt lat="44.76324" lon="4.6463">
        <ele>542.04</ele>
        <time>2019-02-28T08:54:25.000Z</time>
      </trkpt>
      <trkpt lat="44.76338" lon="4.64634">
        <ele>542.31</ele>
        <time>2019-02-28T08:55:02.000Z</time>
      </trkpt>
      <trkpt lat="44.76362" lon="4.64656">
        <ele>543.7</ele>
        <time>2019-02-28T08:55:22.000Z</time>
      </trkpt>
      <trkpt lat="44.76392" lon="4.64674">
        <ele>541.11</ele>
        <time>2019-02-28T08:55:42.000Z</time>
      </trkpt>
      <trkpt lat="44.76412" lon="4.64701">
        <ele>536.4</ele>
        <time>2019-02-28T08:56:02.000Z</time>
      </trkpt>
      <trkpt lat="44.7644" lon="4.6473">
        <ele>533.83</ele>
        <time>2019-02-28T08:56:22.000Z</time>
      </trkpt>
      <trkpt lat="44.76465" lon="4.64738">
        <ele>540.38</ele>
        <time>2019-02-28T08:56:42.000Z</time>
      </trkpt>
      <trkpt lat="44.76482" lon="4.64708">
        <ele>540.02</ele>
        <time>2019-02-28T08:57:02.000Z</time>
      </trkpt>
      <trkpt lat="44.76496" lon="4.64674">
        <ele>534.58</ele>
        <time>2019-02-28T08:57:22.000Z</time>
      </trkpt>
      <trkpt lat="44.76513" lon="4.64641">
        <ele>527.2</ele>
        <time>2019-02-28T08:57:42.000Z</time>
      </trkpt>
      <trkpt lat="44.76527" lon="4.64614">
        <ele>517.16</ele>
        <time>2019-02-28T08:58:02.000Z</time>
      </trkpt>
      <trkpt lat="44.76547" lon="4.64577">
        <ele>521.78</ele>
        <time>2019-02-28T08:58:22.000Z</time>
      </trkpt>
      <trkpt lat="44.76562" lon="4.64545">
        <ele>525.62</ele>
        <time>2019-02-28T08:58:42.000Z</time>
      </trkpt>
      <trkpt lat="44.76573" lon="4.64515">
        <ele>528.98</ele>
        <time>2019-02-28T08:59:02.000Z</time>
      </trkpt>
      <trkpt lat="44.76585" lon="4.64495">
        <ele>526.75</ele>
        <time>2019-02-28T08:59:22.000Z</time>
      </trkpt>
      <trkpt lat="44.766" lon="4.64483">
        <ele>526.38</ele>
        <time>2019-02-28T08:59:42.000Z</time>
      </trkpt>
      <trkpt lat="44.76616" lon="4.64471">
        <ele>529.05</ele>
        <time>2019-02-28T09:00:02.000Z</time>
      </trkpt>
      <trkpt lat="44.76629" lon="4.64463">
        <ele>529.81</ele>
        <time>2019-02-28T09:00:22.000Z</time>
      </trkpt>
      <trkpt lat="44.7665" lon="4.64449">
        <ele>531.55</ele>
        <time>2019-02-28T09:00:42.000Z</time>
      </trkpt>
      <trkpt lat="44.76671" lon="4.64438">
        <ele>540.03</ele>
        <time>2019-02-28T09:01:02.000Z</time>
      </trkpt>
      <trkpt lat="44.76694" lon="4.6442">
        <ele>544.5</ele>
        <time>2019-02-28T09:01:22.000Z</time>
      </trkpt>
      <trkpt lat="44.76705" lon="4.64391">
        <ele>544.8</ele>
        <time>2019-02-28T09:01:42.000Z</time>
      </trkpt>
      <trkpt lat="44.76715" lon="4.64405">
        <ele>546.58</ele>
        <time>2019-02-28T09:02:11.000Z</time>
      </trkpt>
      <trkpt lat="44.76724" lon="4.64432">
        <ele>547.59</ele>
        <time>2019-02-28T09:02:31.000Z</time>
      </trkpt>
      <trkpt lat="44.76732" lon="4.64462">
        <ele>554.42</ele>
        <time>2019-02-28T09:02:51.000Z</time>
      </trkpt>
      <trkpt lat="44.76746" lon="4.64461">
        <ele>556.58</ele>
        <time>2019-02-28T09:03:11.000Z</time>
      </trkpt>
      <trkpt lat="44.76731" lon="4.64435">
        <ele>551.06</ele>
        <time>2019-02-28T09:03:31.000Z</time>
      </trkpt>
      <trkpt lat="44.76733" lon="4.64414">
        <ele>555.57</ele>
        <time>2019-02-28T09:03:51.000Z</time>
      </trkpt>
      <trkpt lat="44.76737" lon="4.64392">
        <ele>558.68</ele>
        <time>2019-02-28T09:04:11.000Z</time>
      </trkpt>
      <trkpt lat="44.7674" lon="4.64373">
        <ele>562.56</ele>
        <time>2019-02-28T09:04:33.000Z</time>
      </trkpt>
      <trkpt lat="44.76738" lon="4.64353">
        <ele>563.82</ele>
        <time>2019-02-28T09:04:59.000Z</time>
      </trkpt>
      <trkpt lat="44.76746" lon="4.64327">
        <ele>557.56</ele>
        <time>2019-02-28T09:05:19.000Z</time>
      </trkpt>
      <trkpt lat="44.76754" lon="4.64302">
        <ele>562.74</ele>
        <time>2019-02-28T09:05:39.000Z</time>
      </trkpt>
      <trkpt lat="44.76757" lon="4.6428">
        <ele>564.32</ele>
        <time>2019-02-28T09:05:59.000Z</time>
      </trkpt>
      <trkpt lat="44.7675" lon="4.64256">
        <ele>564.03</ele>
        <time>2019-02-28T09:06:19.000Z</time>
      </trkpt>
      <trkpt lat="44.76753" lon="4.64229">
        <ele>563</ele>
        <time>2019-02-28T09:06:39.000Z</time>
      </trkpt>
      <trkpt lat="44.7676" lon="4.64212">
        <ele>570.19</ele>
        <time>2019-02-28T09:07:01.000Z</time>
      </trkpt>
      <trkpt lat="44.76769" lon="4.64195">
        <ele>578.67</ele>
        <time>2019-02-28T09:07:21.000Z</time>
      </trkpt>
      <trkpt lat="44.76783" lon="4.64199">
        <ele>588.3</ele>
        <time>2019-02-28T09:07:52.000Z</time>
      </trkpt>
      <trkpt lat="44.76786" lon="4.6422">
        <ele>592.55</ele>
        <time>2019-02-28T09:08:12.000Z</time>
      </trkpt>
      <trkpt lat="44.76801" lon="4.64244">
        <ele>591.1</ele>
        <time>2019-02-28T09:08:32.000Z</time>
      </trkpt>
      <trkpt lat="44.76811" lon="4.64257">
        <ele>590.87</ele>
        <time>2019-02-28T09:08:52.000Z</time>
      </trkpt>
      <trkpt lat="44.76814" lon="4.6429">
        <ele>595.99</ele>
        <time>2019-02-28T09:09:12.000Z</time>
      </trkpt>
      <trkpt lat="44.76817" lon="4.64322">
        <ele>598.04</ele>
        <time>2019-02-28T09:09:32.000Z</time>
      </trkpt>
      <trkpt lat="44.76826" lon="4.64302">
        <ele>593.56</ele>
        <time>2019-02-28T09:09:52.000Z</time>
      </trkpt>
      <trkpt lat="44.76828" lon="4.64282">
        <ele>591.76</ele>
        <time>2019-02-28T09:10:12.000Z</time>
      </trkpt>
      <trkpt lat="44.76838" lon="4.64259">
        <ele>595.76</ele>
        <time>2019-02-28T09:10:32.000Z</time>
      </trkpt>
      <trkpt lat="44.76841" lon="4.6424">
        <ele>604.76</ele>
        <time>2019-02-28T09:10:55.000Z</time>
      </trkpt>
      <trkpt lat="44.76845" lon="4.64221">
        <ele>610.8</ele>
        <time>2019-02-28T09:11:16.000Z</time>
      </trkpt>
      <trkpt lat="44.76847" lon="4.64202">
        <ele>609.74</ele>
        <time>2019-02-28T09:11:38.000Z</time>
      </trkpt>
      <trkpt lat="44.76852" lon="4.64183">
        <ele>608.8</ele>
        <time>2019-02-28T09:12:00.000Z</time>
      </trkpt>
      <trkpt lat="44.76854" lon="4.64163">
        <ele>612.73</ele>
        <time>2019-02-28T09:12:20.000Z</time>
      </trkpt>
      <trkpt lat="44.76858" lon="4.64145">
        <ele>615.41</ele>
        <time>2019-02-28T09:12:43.000Z</time>
      </trkpt>
      <trkpt lat="44.76863" lon="4.64124">
        <ele>611.76</ele>
        <time>2019-02-28T09:13:03.000Z</time>
      </trkpt>
      <trkpt lat="44.76864" lon="4.64105">
        <ele>612.8</ele>
        <time>2019-02-28T09:13:26.000Z</time>
      </trkpt>
      <trkpt lat="44.76864" lon="4.64085">
        <ele>617.13</ele>
        <time>2019-02-28T09:13:53.000Z</time>
      </trkpt>
      <trkpt lat="44.76861" lon="4.64062">
        <ele>619.11</ele>
        <time>2019-02-28T09:14:13.000Z</time>
      </trkpt>
      <trkpt lat="44.76865" lon="4.64037">
        <ele>618.12</ele>
        <time>2019-02-28T09:14:33.000Z</time>
      </trkpt>
      <trkpt lat="44.76866" lon="4.64014">
        <ele>620.18</ele>
        <time>2019-02-28T09:14:53.000Z</time>
      </trkpt>
      <trkpt lat="44.76864" lon="4.6399">
        <ele>620.49</ele>
        <time>2019-02-28T09:15:13.000Z</time>
      </trkpt>
      <trkpt lat="44.76878" lon="4.63996">
        <ele>633.55</ele>
        <time>2019-02-28T09:15:37.000Z</time>
      </trkpt>
      <trkpt lat="44.76891" lon="4.64006">
        <ele>640.94</ele>
        <time>2019-02-28T09:15:58.000Z</time>
      </trkpt>
      <trkpt lat="44.769" lon="4.64021">
        <ele>648.8</ele>
        <time>2019-02-28T09:16:20.000Z</time>
      </trkpt>
      <trkpt lat="44.76911" lon="4.6404">
        <ele>653.68</ele>
        <time>2019-02-28T09:16:40.000Z</time>
      </trkpt>
      <trkpt lat="44.76924" lon="4.64049">
        <ele>655.32</ele>
        <time>2019-02-28T09:17:03.000Z</time>
      </trkpt>
      <trkpt lat="44.76934" lon="4.64063">
        <ele>666.49</ele>
        <time>2019-02-28T09:17:23.000Z</time>
      </trkpt>
      <trkpt lat="44.76948" lon="4.6408">
        <ele>674.82</ele>
        <time>2019-02-28T09:17:43.000Z</time>
      </trkpt>
      <trkpt lat="44.76954" lon="4.64098">
        <ele>672.37</ele>
        <time>2019-02-28T09:18:12.000Z</time>
      </trkpt>
      <trkpt lat="44.76967" lon="4.64104">
        <ele>668.42</ele>
        <time>2019-02-28T09:19:01.000Z</time>
      </trkpt>
      <trkpt lat="44.76979" lon="4.64113">
        <ele>672.55</ele>
        <time>2019-02-28T09:19:25.000Z</time>
      </trkpt>
      <trkpt lat="44.76993" lon="4.64114">
        <ele>678.27</ele>
        <time>2019-02-28T09:20:01.000Z</time>
      </trkpt>
      <trkpt lat="44.77008" lon="4.64115">
        <ele>682.05</ele>
        <time>2019-02-28T09:20:51.000Z</time>
      </trkpt>
      <trkpt lat="44.77022" lon="4.6411">
        <ele>689.82</ele>
        <time>2019-02-28T09:21:15.000Z</time>
      </trkpt>
      <trkpt lat="44.77035" lon="4.641">
        <ele>686.06</ele>
        <time>2019-02-28T09:21:39.000Z</time>
      </trkpt>
      <trkpt lat="44.77051" lon="4.64096">
        <ele>688.88</ele>
        <time>2019-02-28T09:22:30.000Z</time>
      </trkpt>
      <trkpt lat="44.77064" lon="4.64095">
        <ele>691.58</ele>
        <time>2019-02-28T09:23:02.000Z</time>
      </trkpt>
      <trkpt lat="44.77077" lon="4.64089">
        <ele>693.8</ele>
        <time>2019-02-28T09:23:32.000Z</time>
      </trkpt>
      <trkpt lat="44.77091" lon="4.64086">
        <ele>693.82</ele>
        <time>2019-02-28T09:23:59.000Z</time>
      </trkpt>
      <trkpt lat="44.77106" lon="4.64077">
        <ele>693.87</ele>
        <time>2019-02-28T09:24:19.000Z</time>
      </trkpt>
      <trkpt lat="44.77119" lon="4.64069">
        <ele>703.3</ele>
        <time>2019-02-28T09:24:43.000Z</time>
      </trkpt>
      <trkpt lat="44.77105" lon="4.6406">
        <ele>719.24</ele>
        <time>2019-02-28T09:25:57.000Z</time>
      </trkpt>
      <trkpt lat="44.77094" lon="4.64048">
        <ele>722.37</ele>
        <time>2019-02-28T09:26:25.000Z</time>
      </trkpt>
      <trkpt lat="44.77078" lon="4.64034">
        <ele>718.97</ele>
        <time>2019-02-28T09:26:45.000Z</time>
      </trkpt>
      <trkpt lat="44.7707" lon="4.64018">
        <ele>723.04</ele>
        <time>2019-02-28T09:27:25.000Z</time>
      </trkpt>
      <trkpt lat="44.77083" lon="4.6401">
        <ele>722.32</ele>
        <time>2019-02-28T09:27:45.000Z</time>
      </trkpt>
      <trkpt lat="44.77098" lon="4.64005">
        <ele>724.55</ele>
        <time>2019-02-28T09:28:19.000Z</time>
      </trkpt>
      <trkpt lat="44.7709" lon="4.63989">
        <ele>731.75</ele>
        <time>2019-02-28T09:29:19.000Z</time>
      </trkpt>
      <trkpt lat="44.77076" lon="4.63978">
        <ele>734.5</ele>
        <time>2019-02-28T09:29:40.000Z</time>
      </trkpt>
      <trkpt lat="44.77084" lon="4.63962">
        <ele>743.12</ele>
        <time>2019-02-28T09:30:36.000Z</time>
      </trkpt>
      <trkpt lat="44.77096" lon="4.63954">
        <ele>740.81</ele>
        <time>2019-02-28T09:31:00.000Z</time>
      </trkpt>
      <trkpt lat="44.77105" lon="4.63939">
        <ele>746.18</ele>
        <time>2019-02-28T09:31:28.000Z</time>
      </trkpt>
      <trkpt lat="44.77093" lon="4.63931">
        <ele>748.83</ele>
        <time>2019-02-28T09:31:51.000Z</time>
      </trkpt>
      <trkpt lat="44.77093" lon="4.63912">
        <ele>748.78</ele>
        <time>2019-02-28T09:32:20.000Z</time>
      </trkpt>
      <trkpt lat="44.77105" lon="4.63902">
        <ele>763.88</ele>
        <time>2019-02-28T09:33:05.000Z</time>
      </trkpt>
      <trkpt lat="44.77117" lon="4.63892">
        <ele>782.02</ele>
        <time>2019-02-28T09:34:15.000Z</time>
      </trkpt>
      <trkpt lat="44.77127" lon="4.63905">
        <ele>767.8</ele>
        <time>2019-02-28T09:35:09.000Z</time>
      </trkpt>
      <trkpt lat="44.77143" lon="4.63912">
        <ele>765.82</ele>
        <time>2019-02-28T09:35:29.000Z</time>
      </trkpt>
      <trkpt lat="44.7716" lon="4.63921">
        <ele>761.67</ele>
        <time>2019-02-28T09:35:49.000Z</time>
      </trkpt>
      <trkpt lat="44.77186" lon="4.63926">
        <ele>768.92</ele>
        <time>2019-02-28T09:36:09.000Z</time>
      </trkpt>
      <trkpt lat="44.77206" lon="4.63934">
        <ele>765.07</ele>
        <time>2019-02-28T09:36:29.000Z</time>
      </trkpt>
      <trkpt lat="44.77228" lon="4.63945">
        <ele>764.87</ele>
        <time>2019-02-28T09:36:49.000Z</time>
      </trkpt>
      <trkpt lat="44.7725" lon="4.63957">
        <ele>764.8</ele>
        <time>2019-02-28T09:37:09.000Z</time>
      </trkpt>
      <trkpt lat="44.77271" lon="4.63967">
        <ele>765.8</ele>
        <time>2019-02-28T09:37:29.000Z</time>
      </trkpt>
      <trkpt lat="44.77293" lon="4.63979">
        <ele>764.86</ele>
        <time>2019-02-28T09:37:49.000Z</time>
      </trkpt>
      <trkpt lat="44.77316" lon="4.63995">
        <ele>765.8</ele>
        <time>2019-02-28T09:38:09.000Z</time>
      </trkpt>
      <trkpt lat="44.7734" lon="4.64008">
        <ele>766.8</ele>
        <time>2019-02-28T09:38:29.000Z</time>
      </trkpt>
      <trkpt lat="44.77358" lon="4.64027">
        <ele>763.1</ele>
        <time>2019-02-28T09:38:49.000Z</time>
      </trkpt>
      <trkpt lat="44.77385" lon="4.64048">
        <ele>767.85</ele>
        <time>2019-02-28T09:39:09.000Z</time>
      </trkpt>
      <trkpt lat="44.77393" lon="4.64074">
        <ele>763.74</ele>
        <time>2019-02-28T09:39:29.000Z</time>
      </trkpt>
      <trkpt lat="44.77406" lon="4.64106">
        <ele>766.85</ele>
        <time>2019-02-28T09:39:49.000Z</time>
      </trkpt>
      <trkpt lat="44.77413" lon="4.64142">
        <ele>760.81</ele>
        <time>2019-02-28T09:40:09.000Z</time>
      </trkpt>
      <trkpt lat="44.7742" lon="4.64169">
        <ele>762.73</ele>
        <time>2019-02-28T09:40:29.000Z</time>
      </trkpt>
      <trkpt lat="44.77419" lon="4.64195">
        <ele>762.29</ele>
        <time>2019-02-28T09:40:49.000Z</time>
      </trkpt>
      <trkpt lat="44.77417" lon="4.64233">
        <ele>767.55</ele>
        <time>2019-02-28T09:41:09.000Z</time>
      </trkpt>
      <trkpt lat="44.77414" lon="4.64272">
        <ele>762.81</ele>
        <time>2019-02-28T09:41:29.000Z</time>
      </trkpt>
      <trkpt lat="44.77408" lon="4.64299">
        <ele>758.8</ele>
        <time>2019-02-28T09:41:49.000Z</time>
      </trkpt>
      <trkpt lat="44.774" lon="4.64336">
        <ele>757.56</ele>
        <time>2019-02-28T09:42:09.000Z</time>
      </trkpt>
      <trkpt lat="44.77391" lon="4.64366">
        <ele>757.81</ele>
        <time>2019-02-28T09:42:29.000Z</time>
      </trkpt>
      <trkpt lat="44.77385" lon="4.64386">
        <ele>757.06</ele>
        <time>2019-02-28T09:42:49.000Z</time>
      </trkpt>
      <trkpt lat="44.77375" lon="4.6441">
        <ele>759.43</ele>
        <time>2019-02-28T09:43:09.000Z</time>
      </trkpt>
      <trkpt lat="44.77365" lon="4.6444">
        <ele>757.34</ele>
        <time>2019-02-28T09:43:29.000Z</time>
      </trkpt>
      <trkpt lat="44.77359" lon="4.64457">
        <ele>757.31</ele>
        <time>2019-02-28T09:44:05.000Z</time>
      </trkpt>
      <trkpt lat="44.77351" lon="4.64493">
        <ele>755.82</ele>
        <time>2019-02-28T09:44:25.000Z</time>
      </trkpt>
      <trkpt lat="44.77354" lon="4.6453">
        <ele>753.82</ele>
        <time>2019-02-28T09:44:45.000Z</time>
      </trkpt>
      <trkpt lat="44.77369" lon="4.64548">
        <ele>754.01</ele>
        <time>2019-02-28T09:45:05.000Z</time>
      </trkpt>
      <trkpt lat="44.77388" lon="4.6454">
        <ele>753.74</ele>
        <time>2019-02-28T09:45:25.000Z</time>
      </trkpt>
      <trkpt lat="44.77409" lon="4.64528">
        <ele>753.89</ele>
        <time>2019-02-28T09:45:45.000Z</time>
      </trkpt>
      <trkpt lat="44.77424" lon="4.6452">
        <ele>752.77</ele>
        <time>2019-02-28T09:46:05.000Z</time>
      </trkpt>
      <trkpt lat="44.77445" lon="4.64516">
        <ele>744.88</ele>
        <time>2019-02-28T09:46:25.000Z</time>
      </trkpt>
      <trkpt lat="44.77465" lon="4.64514">
        <ele>742.06</ele>
        <time>2019-02-28T09:46:45.000Z</time>
      </trkpt>
      <trkpt lat="44.7749" lon="4.64515">
        <ele>748.52</ele>
        <time>2019-02-28T09:47:05.000Z</time>
      </trkpt>
      <trkpt lat="44.7751" lon="4.64517">
        <ele>748.88</ele>
        <time>2019-02-28T09:47:25.000Z</time>
      </trkpt>
      <trkpt lat="44.77528" lon="4.64518">
        <ele>744.87</ele>
        <time>2019-02-28T09:47:45.000Z</time>
      </trkpt>
      <trkpt lat="44.77554" lon="4.64525">
        <ele>743.05</ele>
        <time>2019-02-28T09:48:05.000Z</time>
      </trkpt>
      <trkpt lat="44.77571" lon="4.64535">
        <ele>739.33</ele>
        <time>2019-02-28T09:48:25.000Z</time>
      </trkpt>
      <trkpt lat="44.77592" lon="4.64552">
        <ele>736.83</ele>
        <time>2019-02-28T09:48:45.000Z</time>
      </trkpt>
      <trkpt lat="44.77608" lon="4.64576">
        <ele>730.87</ele>
        <time>2019-02-28T09:49:05.000Z</time>
      </trkpt>
      <trkpt lat="44.77621" lon="4.646">
        <ele>732.83</ele>
        <time>2019-02-28T09:49:25.000Z</time>
      </trkpt>
      <trkpt lat="44.77637" lon="4.64623">
        <ele>726.52</ele>
        <time>2019-02-28T09:49:45.000Z</time>
      </trkpt>
      <trkpt lat="44.77641" lon="4.64659">
        <ele>726.06</ele>
        <time>2019-02-28T09:50:05.000Z</time>
      </trkpt>
      <trkpt lat="44.77649" lon="4.64688">
        <ele>728.13</ele>
        <time>2019-02-28T09:50:25.000Z</time>
      </trkpt>
      <trkpt lat="44.77664" lon="4.64717">
        <ele>731.37</ele>
        <time>2019-02-28T09:50:45.000Z</time>
      </trkpt>
      <trkpt lat="44.77672" lon="4.64743">
        <ele>727.01</ele>
        <time>2019-02-28T09:51:05.000Z</time>
      </trkpt>
      <trkpt lat="44.77677" lon="4.64776">
        <ele>725.47</ele>
        <time>2019-02-28T09:51:25.000Z</time>
      </trkpt>
      <trkpt lat="44.77682" lon="4.64806">
        <ele>722.57</ele>
        <time>2019-02-28T09:51:45.000Z</time>
      </trkpt>
      <trkpt lat="44.7769" lon="4.64841">
        <ele>729.56</ele>
        <time>2019-02-28T09:52:05.000Z</time>
      </trkpt>
      <trkpt lat="44.77692" lon="4.64874">
        <ele>732.82</ele>
        <time>2019-02-28T09:52:25.000Z</time>
      </trkpt>
      <trkpt lat="44.77684" lon="4.64904">
        <ele>722.88</ele>
        <time>2019-02-28T09:52:45.000Z</time>
      </trkpt>
      <trkpt lat="44.77683" lon="4.64939">
        <ele>726.56</ele>
        <time>2019-02-28T09:53:05.000Z</time>
      </trkpt>
      <trkpt lat="44.77677" lon="4.64967">
        <ele>716.9</ele>
        <time>2019-02-28T09:53:25.000Z</time>
      </trkpt>
      <trkpt lat="44.77676" lon="4.65001">
        <ele>712.83</ele>
        <time>2019-02-28T09:53:45.000Z</time>
      </trkpt>
      <trkpt lat="44.7767" lon="4.65031">
        <ele>708.09</ele>
        <time>2019-02-28T09:54:05.000Z</time>
      </trkpt>
      <trkpt lat="44.77678" lon="4.65056">
        <ele>699.6</ele>
        <time>2019-02-28T09:54:25.000Z</time>
      </trkpt>
      <trkpt lat="44.77699" lon="4.65083">
        <ele>702.86</ele>
        <time>2019-02-28T09:54:45.000Z</time>
      </trkpt>
      <trkpt lat="44.7771" lon="4.65103">
        <ele>696.47</ele>
        <time>2019-02-28T09:55:05.000Z</time>
      </trkpt>
      <trkpt lat="44.77731" lon="4.65115">
        <ele>692.94</ele>
        <time>2019-02-28T09:55:25.000Z</time>
      </trkpt>
      <trkpt lat="44.77752" lon="4.65131">
        <ele>689.95</ele>
        <time>2019-02-28T09:55:45.000Z</time>
      </trkpt>
      <trkpt lat="44.77766" lon="4.65138">
        <ele>688.56</ele>
        <time>2019-02-28T09:56:05.000Z</time>
      </trkpt>
      <trkpt lat="44.77804" lon="4.65146">
        <ele>685.8</ele>
        <time>2019-02-28T09:56:25.000Z</time>
      </trkpt>
      <trkpt lat="44.77818" lon="4.65153">
        <ele>683.13</ele>
        <time>2019-02-28T09:56:45.000Z</time>
      </trkpt>
      <trkpt lat="44.77837" lon="4.65164">
        <ele>682.08</ele>
        <time>2019-02-28T09:57:05.000Z</time>
      </trkpt>
      <trkpt lat="44.77854" lon="4.65165">
        <ele>680.57</ele>
        <time>2019-02-28T09:57:25.000Z</time>
      </trkpt>
      <trkpt lat="44.77881" lon="4.6517">
        <ele>685.05</ele>
        <time>2019-02-28T09:57:45.000Z</time>
      </trkpt>
      <trkpt lat="44.77901" lon="4.65185">
        <ele>683.13</ele>
        <time>2019-02-28T09:58:05.000Z</time>
      </trkpt>
      <trkpt lat="44.77901" lon="4.65218">
        <ele>681.13</ele>
        <time>2019-02-28T09:58:25.000Z</time>
      </trkpt>
      <trkpt lat="44.77907" lon="4.65248">
        <ele>680.56</ele>
        <time>2019-02-28T09:58:45.000Z</time>
      </trkpt>
      <trkpt lat="44.77905" lon="4.6528">
        <ele>682.09</ele>
        <time>2019-02-28T09:59:05.000Z</time>
      </trkpt>
      <trkpt lat="44.77902" lon="4.65308">
        <ele>665.28</ele>
        <time>2019-02-28T09:59:25.000Z</time>
      </trkpt>
      <trkpt lat="44.77899" lon="4.65337">
        <ele>664.89</ele>
        <time>2019-02-28T09:59:45.000Z</time>
      </trkpt>
      <trkpt lat="44.77896" lon="4.65373">
        <ele>664.07</ele>
        <time>2019-02-28T10:00:05.000Z</time>
      </trkpt>
      <trkpt lat="44.7789" lon="4.65398">
        <ele>669.27</ele>
        <time>2019-02-28T10:00:25.000Z</time>
      </trkpt>
      <trkpt lat="44.77884" lon="4.65434">
        <ele>663.76</ele>
        <time>2019-02-28T10:00:45.000Z</time>
      </trkpt>
      <trkpt lat="44.77876" lon="4.65465">
        <ele>661.7</ele>
        <time>2019-02-28T10:01:05.000Z</time>
      </trkpt>
      <trkpt lat="44.77863" lon="4.65491">
        <ele>665.81</ele>
        <time>2019-02-28T10:01:25.000Z</time>
      </trkpt>
      <trkpt lat="44.77847" lon="4.65518">
        <ele>655.58</ele>
        <time>2019-02-28T10:01:45.000Z</time>
      </trkpt>
      <trkpt lat="44.77829" lon="4.65537">
        <ele>659.68</ele>
        <time>2019-02-28T10:02:05.000Z</time>
      </trkpt>
      <trkpt lat="44.77815" lon="4.65557">
        <ele>654.42</ele>
        <time>2019-02-28T10:02:25.000Z</time>
      </trkpt>
      <trkpt lat="44.77797" lon="4.65579">
        <ele>652.83</ele>
        <time>2019-02-28T10:02:45.000Z</time>
      </trkpt>
      <trkpt lat="44.77803" lon="4.65604">
        <ele>647.58</ele>
        <time>2019-02-28T10:03:05.000Z</time>
      </trkpt>
      <trkpt lat="44.77825" lon="4.656">
        <ele>639.75</ele>
        <time>2019-02-28T10:03:25.000Z</time>
      </trkpt>
      <trkpt lat="44.77846" lon="4.65596">
        <ele>641.09</ele>
        <time>2019-02-28T10:03:45.000Z</time>
      </trkpt>
      <trkpt lat="44.77862" lon="4.65589">
        <ele>644.83</ele>
        <time>2019-02-28T10:04:05.000Z</time>
      </trkpt>
      <trkpt lat="44.7789" lon="4.6558">
        <ele>641.88</ele>
        <time>2019-02-28T10:04:25.000Z</time>
      </trkpt>
      <trkpt lat="44.77908" lon="4.6557">
        <ele>639.14</ele>
        <time>2019-02-28T10:04:45.000Z</time>
      </trkpt>
      <trkpt lat="44.77933" lon="4.65571">
        <ele>640</ele>
        <time>2019-02-28T10:05:05.000Z</time>
      </trkpt>
      <trkpt lat="44.77957" lon="4.6557">
        <ele>636.91</ele>
        <time>2019-02-28T10:05:25.000Z</time>
      </trkpt>
      <trkpt lat="44.77972" lon="4.65575">
        <ele>629.09</ele>
        <time>2019-02-28T10:05:46.000Z</time>
      </trkpt>
      <trkpt lat="44.77995" lon="4.65587">
        <ele>626.13</ele>
        <time>2019-02-28T10:06:06.000Z</time>
      </trkpt>
      <trkpt lat="44.78022" lon="4.65604">
        <ele>629.52</ele>
        <time>2019-02-28T10:06:26.000Z</time>
      </trkpt>
      <trkpt lat="44.78034" lon="4.65624">
        <ele>627.84</ele>
        <time>2019-02-28T10:06:46.000Z</time>
      </trkpt>
      <trkpt lat="44.78025" lon="4.65639">
        <ele>626.82</ele>
        <time>2019-02-28T10:07:17.000Z</time>
      </trkpt>
      <trkpt lat="44.78009" lon="4.65662">
        <ele>627.76</ele>
        <time>2019-02-28T10:07:37.000Z</time>
      </trkpt>
      <trkpt lat="44.77995" lon="4.65683">
        <ele>627.81</ele>
        <time>2019-02-28T10:07:57.000Z</time>
      </trkpt>
      <trkpt lat="44.77984" lon="4.65708">
        <ele>625.64</ele>
        <time>2019-02-28T10:08:17.000Z</time>
      </trkpt>
      <trkpt lat="44.77973" lon="4.65736">
        <ele>616.84</ele>
        <time>2019-02-28T10:08:37.000Z</time>
      </trkpt>
      <trkpt lat="44.77961" lon="4.65768">
        <ele>603.73</ele>
        <time>2019-02-28T10:08:57.000Z</time>
      </trkpt>
      <trkpt lat="44.77952" lon="4.65794">
        <ele>604.08</ele>
        <time>2019-02-28T10:09:17.000Z</time>
      </trkpt>
      <trkpt lat="44.77944" lon="4.65825">
        <ele>599.58</ele>
        <time>2019-02-28T10:09:37.000Z</time>
      </trkpt>
      <trkpt lat="44.77935" lon="4.65855">
        <ele>595.85</ele>
        <time>2019-02-28T10:09:57.000Z</time>
      </trkpt>
      <trkpt lat="44.77926" lon="4.65884">
        <ele>596.84</ele>
        <time>2019-02-28T10:10:17.000Z</time>
      </trkpt>
      <trkpt lat="44.77919" lon="4.6591">
        <ele>594.89</ele>
        <time>2019-02-28T10:10:37.000Z</time>
      </trkpt>
      <trkpt lat="44.77916" lon="4.65941">
        <ele>594.64</ele>
        <time>2019-02-28T10:10:57.000Z</time>
      </trkpt>
      <trkpt lat="44.77912" lon="4.65973">
        <ele>586.79</ele>
        <time>2019-02-28T10:11:17.000Z</time>
      </trkpt>
      <trkpt lat="44.77901" lon="4.65998">
        <ele>583.84</ele>
        <time>2019-02-28T10:11:37.000Z</time>
      </trkpt>
      <trkpt lat="44.77891" lon="4.66027">
        <ele>583.84</ele>
        <time>2019-02-28T10:11:57.000Z</time>
      </trkpt>
      <trkpt lat="44.77879" lon="4.66046">
        <ele>582.84</ele>
        <time>2019-02-28T10:12:17.000Z</time>
      </trkpt>
      <trkpt lat="44.77863" lon="4.66075">
        <ele>580.84</ele>
        <time>2019-02-28T10:12:37.000Z</time>
      </trkpt>
      <trkpt lat="44.77849" lon="4.661">
        <ele>578.79</ele>
        <time>2019-02-28T10:12:57.000Z</time>
      </trkpt>
      <trkpt lat="44.77836" lon="4.66123">
        <ele>574.77</ele>
        <time>2019-02-28T10:13:17.000Z</time>
      </trkpt>
      <trkpt lat="44.7782" lon="4.66152">
        <ele>575.17</ele>
        <time>2019-02-28T10:13:37.000Z</time>
      </trkpt>
      <trkpt lat="44.77806" lon="4.66174">
        <ele>572.4</ele>
        <time>2019-02-28T10:13:57.000Z</time>
      </trkpt>
      <trkpt lat="44.77792" lon="4.66196">
        <ele>572.66</ele>
        <time>2019-02-28T10:14:17.000Z</time>
      </trkpt>
      <trkpt lat="44.77785" lon="4.66228">
        <ele>564.59</ele>
        <time>2019-02-28T10:14:37.000Z</time>
      </trkpt>
      <trkpt lat="44.77775" lon="4.66257">
        <ele>565.86</ele>
        <time>2019-02-28T10:14:57.000Z</time>
      </trkpt>
      <trkpt lat="44.77769" lon="4.66284">
        <ele>562.11</ele>
        <time>2019-02-28T10:15:17.000Z</time>
      </trkpt>
      <trkpt lat="44.77782" lon="4.66289">
        <ele>566.91</ele>
        <time>2019-02-28T10:15:41.000Z</time>
      </trkpt>
      <trkpt lat="44.77798" lon="4.66291">
        <ele>562.2</ele>
        <time>2019-02-28T10:16:01.000Z</time>
      </trkpt>
      <trkpt lat="44.77818" lon="4.66295">
        <ele>557.66</ele>
        <time>2019-02-28T10:16:21.000Z</time>
      </trkpt>
      <trkpt lat="44.77843" lon="4.66296">
        <ele>554.92</ele>
        <time>2019-02-28T10:16:41.000Z</time>
      </trkpt>
      <trkpt lat="44.77858" lon="4.66308">
        <ele>554.4</ele>
        <time>2019-02-28T10:17:01.000Z</time>
      </trkpt>
      <trkpt lat="44.77883" lon="4.66327">
        <ele>548.35</ele>
        <time>2019-02-28T10:17:21.000Z</time>
      </trkpt>
      <trkpt lat="44.77899" lon="4.66339">
        <ele>550.82</ele>
        <time>2019-02-28T10:17:41.000Z</time>
      </trkpt>
      <trkpt lat="44.77911" lon="4.66347">
        <ele>548.86</ele>
        <time>2019-02-28T10:18:01.000Z</time>
      </trkpt>
      <trkpt lat="44.77927" lon="4.66363">
        <ele>543.91</ele>
        <time>2019-02-28T10:18:21.000Z</time>
      </trkpt>
      <trkpt lat="44.77937" lon="4.6639">
        <ele>542.9</ele>
        <time>2019-02-28T10:18:41.000Z</time>
      </trkpt>
      <trkpt lat="44.77955" lon="4.6642">
        <ele>547.78</ele>
        <time>2019-02-28T10:19:01.000Z</time>
      </trkpt>
      <trkpt lat="44.7797" lon="4.66432">
        <ele>544.59</ele>
        <time>2019-02-28T10:19:21.000Z</time>
      </trkpt>
      <trkpt lat="44.77997" lon="4.6643">
        <ele>544.16</ele>
        <time>2019-02-28T10:19:41.000Z</time>
      </trkpt>
      <trkpt lat="44.78022" lon="4.66433">
        <ele>534.97</ele>
        <time>2019-02-28T10:20:01.000Z</time>
      </trkpt>
      <trkpt lat="44.78048" lon="4.66443">
        <ele>539.83</ele>
        <time>2019-02-28T10:20:21.000Z</time>
      </trkpt>
      <trkpt lat="44.78064" lon="4.66447">
        <ele>542.85</ele>
        <time>2019-02-28T10:20:41.000Z</time>
      </trkpt>
      <trkpt lat="44.78086" lon="4.66448">
        <ele>543.53</ele>
        <time>2019-02-28T10:21:01.000Z</time>
      </trkpt>
      <trkpt lat="44.78108" lon="4.66456">
        <ele>542.15</ele>
        <time>2019-02-28T10:21:21.000Z</time>
      </trkpt>
      <trkpt lat="44.7813" lon="4.66462">
        <ele>531.18</ele>
        <time>2019-02-28T10:21:41.000Z</time>
      </trkpt>
      <trkpt lat="44.78145" lon="4.6647">
        <ele>543.76</ele>
        <time>2019-02-28T10:22:01.000Z</time>
      </trkpt>
      <trkpt lat="44.78158" lon="4.66478">
        <ele>555.17</ele>
        <time>2019-02-28T10:22:22.000Z</time>
      </trkpt>
      <trkpt lat="44.78161" lon="4.66497">
        <ele>549.41</ele>
        <time>2019-02-28T10:23:07.000Z</time>
      </trkpt>
      <trkpt lat="44.78169" lon="4.66529">
        <ele>546.84</ele>
        <time>2019-02-28T10:23:27.000Z</time>
      </trkpt>
      <trkpt lat="44.78171" lon="4.66562">
        <ele>557.09</ele>
        <time>2019-02-28T10:23:47.000Z</time>
      </trkpt>
      <trkpt lat="44.78167" lon="4.66603">
        <ele>551.1</ele>
        <time>2019-02-28T10:24:07.000Z</time>
      </trkpt>
      <trkpt lat="44.78171" lon="4.66638">
        <ele>548.78</ele>
        <time>2019-02-28T10:24:27.000Z</time>
      </trkpt>
      <trkpt lat="44.78189" lon="4.66658">
        <ele>548.54</ele>
        <time>2019-02-28T10:24:47.000Z</time>
      </trkpt>
      <trkpt lat="44.78211" lon="4.66672">
        <ele>543.85</ele>
        <time>2019-02-28T10:25:07.000Z</time>
      </trkpt>
      <trkpt lat="44.78221" lon="4.66693">
        <ele>547.08</ele>
        <time>2019-02-28T10:25:27.000Z</time>
      </trkpt>
      <trkpt lat="44.78231" lon="4.66709">
        <ele>542.48</ele>
        <time>2019-02-28T10:25:47.000Z</time>
      </trkpt>
      <trkpt lat="44.78249" lon="4.66713">
        <ele>544.81</ele>
        <time>2019-02-28T10:26:07.000Z</time>
      </trkpt>
      <trkpt lat="44.78264" lon="4.66717">
        <ele>543.12</ele>
        <time>2019-02-28T10:26:29.000Z</time>
      </trkpt>
      <trkpt lat="44.78283" lon="4.66728">
        <ele>542.83</ele>
        <time>2019-02-28T10:26:49.000Z</time>
      </trkpt>
      <trkpt lat="44.78294" lon="4.6674">
        <ele>541.05</ele>
        <time>2019-02-28T10:27:09.000Z</time>
      </trkpt>
      <trkpt lat="44.7831" lon="4.66742">
        <ele>545.79</ele>
        <time>2019-02-28T10:27:29.000Z</time>
      </trkpt>
      <trkpt lat="44.78315" lon="4.66761">
        <ele>549.72</ele>
        <time>2019-02-28T10:27:49.000Z</time>
      </trkpt>
      <trkpt lat="44.78329" lon="4.66782">
        <ele>555.86</ele>
        <time>2019-02-28T10:28:09.000Z</time>
      </trkpt>
      <trkpt lat="44.78337" lon="4.66801">
        <ele>548.87</ele>
        <time>2019-02-28T10:28:29.000Z</time>
      </trkpt>
      <trkpt lat="44.78348" lon="4.66823">
        <ele>545.78</ele>
        <time>2019-02-28T10:28:49.000Z</time>
      </trkpt>
      <trkpt lat="44.78346" lon="4.66847">
        <ele>546.07</ele>
        <time>2019-02-28T10:29:09.000Z</time>
      </trkpt>
      <trkpt lat="44.78351" lon="4.66865">
        <ele>551.84</ele>
        <time>2019-02-28T10:29:42.000Z</time>
      </trkpt>
      <trkpt lat="44.78349" lon="4.66886">
        <ele>548.92</ele>
        <time>2019-02-28T10:30:03.000Z</time>
      </trkpt>
      <trkpt lat="44.78359" lon="4.66909">
        <ele>554.84</ele>
        <time>2019-02-28T10:30:23.000Z</time>
      </trkpt>
      <trkpt lat="44.78367" lon="4.66924">
        <ele>558.73</ele>
        <time>2019-02-28T10:30:54.000Z</time>
      </trkpt>
      <trkpt lat="44.78379" lon="4.66933">
        <ele>558.84</ele>
        <time>2019-02-28T10:31:44.000Z</time>
      </trkpt>
      <trkpt lat="44.78388" lon="4.66948">
        <ele>558.92</ele>
        <time>2019-02-28T10:32:08.000Z</time>
      </trkpt>
      <trkpt lat="44.784" lon="4.66965">
        <ele>563.73</ele>
        <time>2019-02-28T10:32:28.000Z</time>
      </trkpt>
      <trkpt lat="44.78421" lon="4.66977">
        <ele>568.18</ele>
        <time>2019-02-28T10:32:48.000Z</time>
      </trkpt>
      <trkpt lat="44.78442" lon="4.66989">
        <ele>563.85</ele>
        <time>2019-02-28T10:33:08.000Z</time>
      </trkpt>
      <trkpt lat="44.78459" lon="4.66997">
        <ele>565.54</ele>
        <time>2019-02-28T10:33:28.000Z</time>
      </trkpt>
      <trkpt lat="44.78474" lon="4.67007">
        <ele>569.88</ele>
        <time>2019-02-28T10:33:48.000Z</time>
      </trkpt>
      <trkpt lat="44.78493" lon="4.67016">
        <ele>572.85</ele>
        <time>2019-02-28T10:34:08.000Z</time>
      </trkpt>
      <trkpt lat="44.7851" lon="4.67024">
        <ele>575.61</ele>
        <time>2019-02-28T10:34:28.000Z</time>
      </trkpt>
      <trkpt lat="44.7853" lon="4.67032">
        <ele>579.92</ele>
        <time>2019-02-28T10:34:48.000Z</time>
      </trkpt>
      <trkpt lat="44.78549" lon="4.67038">
        <ele>580.85</ele>
        <time>2019-02-28T10:35:08.000Z</time>
      </trkpt>
      <trkpt lat="44.78573" lon="4.67037">
        <ele>576.97</ele>
        <time>2019-02-28T10:35:28.000Z</time>
      </trkpt>
      <trkpt lat="44.78587" lon="4.67028">
        <ele>581.91</ele>
        <time>2019-02-28T10:35:48.000Z</time>
      </trkpt>
      <trkpt lat="44.78601" lon="4.67022">
        <ele>582.79</ele>
        <time>2019-02-28T10:36:10.000Z</time>
      </trkpt>
      <trkpt lat="44.7862" lon="4.67025">
        <ele>588.73</ele>
        <time>2019-02-28T10:36:30.000Z</time>
      </trkpt>
      <trkpt lat="44.7864" lon="4.67033">
        <ele>598.4</ele>
        <time>2019-02-28T10:36:50.000Z</time>
      </trkpt>
      <trkpt lat="44.7865" lon="4.67047">
        <ele>600.65</ele>
        <time>2019-02-28T10:37:19.000Z</time>
      </trkpt>
      <trkpt lat="44.7866" lon="4.67065">
        <ele>599.35</ele>
        <time>2019-02-28T10:37:39.000Z</time>
      </trkpt>
      <trkpt lat="44.78671" lon="4.67084">
        <ele>604.85</ele>
        <time>2019-02-28T10:37:59.000Z</time>
      </trkpt>
      <trkpt lat="44.78679" lon="4.67107">
        <ele>601.82</ele>
        <time>2019-02-28T10:38:19.000Z</time>
      </trkpt>
      <trkpt lat="44.78691" lon="4.67128">
        <ele>600.92</ele>
        <time>2019-02-28T10:38:39.000Z</time>
      </trkpt>
      <trkpt lat="44.78705" lon="4.67148">
        <ele>603.79</ele>
        <time>2019-02-28T10:38:59.000Z</time>
      </trkpt>
      <trkpt lat="44.78719" lon="4.67161">
        <ele>610.84</ele>
        <time>2019-02-28T10:39:19.000Z</time>
      </trkpt>
      <trkpt lat="44.78723" lon="4.6718">
        <ele>614.59</ele>
        <time>2019-02-28T10:39:39.000Z</time>
      </trkpt>
      <trkpt lat="44.78729" lon="4.67206">
        <ele>615.09</ele>
        <time>2019-02-28T10:39:59.000Z</time>
      </trkpt>
      <trkpt lat="44.78741" lon="4.67234">
        <ele>615.6</ele>
        <time>2019-02-28T10:40:19.000Z</time>
      </trkpt>
      <trkpt lat="44.78752" lon="4.67258">
        <ele>615.73</ele>
        <time>2019-02-28T10:40:39.000Z</time>
      </trkpt>
      <trkpt lat="44.78756" lon="4.67282">
        <ele>614.9</ele>
        <time>2019-02-28T10:40:59.000Z</time>
      </trkpt>
      <trkpt lat="44.78766" lon="4.67309">
        <ele>615.79</ele>
        <time>2019-02-28T10:41:19.000Z</time>
      </trkpt>
      <trkpt lat="44.78779" lon="4.67328">
        <ele>621.76</ele>
        <time>2019-02-28T10:41:39.000Z</time>
      </trkpt>
      <trkpt lat="44.78794" lon="4.67336">
        <ele>622.04</ele>
        <time>2019-02-28T10:41:59.000Z</time>
      </trkpt>
      <trkpt lat="44.78807" lon="4.6735">
        <ele>629.61</ele>
        <time>2019-02-28T10:42:19.000Z</time>
      </trkpt>
      <trkpt lat="44.7881" lon="4.6737">
        <ele>625.86</ele>
        <time>2019-02-28T10:43:14.000Z</time>
      </trkpt>
      <trkpt lat="44.7882" lon="4.67391">
        <ele>626.09</ele>
        <time>2019-02-28T10:43:34.000Z</time>
      </trkpt>
      <trkpt lat="44.78835" lon="4.6741">
        <ele>626.11</ele>
        <time>2019-02-28T10:43:54.000Z</time>
      </trkpt>
      <trkpt lat="44.78844" lon="4.67433">
        <ele>623.74</ele>
        <time>2019-02-28T10:44:14.000Z</time>
      </trkpt>
      <trkpt lat="44.78846" lon="4.67452">
        <ele>625.66</ele>
        <time>2019-02-28T10:44:42.000Z</time>
      </trkpt>
      <trkpt lat="44.78865" lon="4.67483">
        <ele>625.66</ele>
        <time>2019-02-28T10:45:02.000Z</time>
      </trkpt>
      <trkpt lat="44.7888" lon="4.67506">
        <ele>624.05</ele>
        <time>2019-02-28T10:45:22.000Z</time>
      </trkpt>
      <trkpt lat="44.78894" lon="4.67502">
        <ele>625.6</ele>
        <time>2019-02-28T10:46:02.000Z</time>
      </trkpt>
      <trkpt lat="44.7891" lon="4.67499">
        <ele>629.87</ele>
        <time>2019-02-28T10:46:22.000Z</time>
      </trkpt>
      <trkpt lat="44.78924" lon="4.67504">
        <ele>633.77</ele>
        <time>2019-02-28T10:47:08.000Z</time>
      </trkpt>
      <trkpt lat="44.78938" lon="4.67507">
        <ele>634.69</ele>
        <time>2019-02-28T10:47:32.000Z</time>
      </trkpt>
      <trkpt lat="44.78951" lon="4.67501">
        <ele>635.61</ele>
        <time>2019-02-28T10:48:00.666Z</time>
      </trkpt>
      <trkpt lat="44.78966" lon="4.67503">
        <ele>645.05</ele>
        <time>2019-02-28T10:48:36.000Z</time>
      </trkpt>
      <trkpt lat="44.78979" lon="4.67497">
        <ele>648.13</ele>
        <time>2019-02-28T10:49:04.000Z</time>
      </trkpt>
      <trkpt lat="44.78992" lon="4.67502">
        <ele>654.6</ele>
        <time>2019-02-28T10:49:33.000Z</time>
      </trkpt>
      <trkpt lat="44.79001" lon="4.67516">
        <ele>657.61</ele>
        <time>2019-02-28T10:49:53.000Z</time>
      </trkpt>
      <trkpt lat="44.79009" lon="4.67536">
        <ele>656.81</ele>
        <time>2019-02-28T10:50:13.000Z</time>
      </trkpt>
      <trkpt lat="44.7901" lon="4.67556">
        <ele>662.81</ele>
        <time>2019-02-28T10:50:33.000Z</time>
      </trkpt>
      <trkpt lat="44.79012" lon="4.67575">
        <ele>667.42</ele>
        <time>2019-02-28T10:50:59.000Z</time>
      </trkpt>
      <trkpt lat="44.79025" lon="4.67582">
        <ele>661.71</ele>
        <time>2019-02-28T10:51:27.000Z</time>
      </trkpt>
      <trkpt lat="44.79038" lon="4.67586">
        <ele>667.81</ele>
        <time>2019-02-28T10:51:48.000Z</time>
      </trkpt>
      <trkpt lat="44.79044" lon="4.67569">
        <ele>670.94</ele>
        <time>2019-02-28T10:52:10.000Z</time>
      </trkpt>
      <trkpt lat="44.79048" lon="4.6755">
        <ele>674.87</ele>
        <time>2019-02-28T10:54:08.000Z</time>
      </trkpt>
      <trkpt lat="44.79047" lon="4.67518">
        <ele>675.61</ele>
        <time>2019-02-28T10:54:28.000Z</time>
      </trkpt>
      <trkpt lat="44.79054" lon="4.67497">
        <ele>682.36</ele>
        <time>2019-02-28T10:54:48.000Z</time>
      </trkpt>
      <trkpt lat="44.79057" lon="4.67472">
        <ele>682.55</ele>
        <time>2019-02-28T10:55:08.000Z</time>
      </trkpt>
      <trkpt lat="44.7906" lon="4.67449">
        <ele>685.85</ele>
        <time>2019-02-28T10:55:28.000Z</time>
      </trkpt>
      <trkpt lat="44.79056" lon="4.6743">
        <ele>687.8</ele>
        <time>2019-02-28T10:55:50.000Z</time>
      </trkpt>
      <trkpt lat="44.79061" lon="4.67411">
        <ele>687.88</ele>
        <time>2019-02-28T10:56:22.000Z</time>
      </trkpt>
      <trkpt lat="44.79061" lon="4.67392">
        <ele>697.02</ele>
        <time>2019-02-28T10:56:53.000Z</time>
      </trkpt>
      <trkpt lat="44.79066" lon="4.67373">
        <ele>704.56</ele>
        <time>2019-02-28T10:57:20.000Z</time>
      </trkpt>
      <trkpt lat="44.79064" lon="4.67354">
        <ele>702.92</ele>
        <time>2019-02-28T10:57:43.000Z</time>
      </trkpt>
      <trkpt lat="44.79055" lon="4.67337">
        <ele>707.61</ele>
        <time>2019-02-28T10:58:03.000Z</time>
      </trkpt>
      <trkpt lat="44.79046" lon="4.67323">
        <ele>717.93</ele>
        <time>2019-02-28T10:58:34.000Z</time>
      </trkpt>
      <trkpt lat="44.79044" lon="4.673">
        <ele>716.04</ele>
        <time>2019-02-28T10:58:54.000Z</time>
      </trkpt>
      <trkpt lat="44.79032" lon="4.67285">
        <ele>712.61</ele>
        <time>2019-02-28T10:59:14.000Z</time>
      </trkpt>
      <trkpt lat="44.79025" lon="4.67261">
        <ele>717.56</ele>
        <time>2019-02-28T10:59:34.000Z</time>
      </trkpt>
      <trkpt lat="44.79023" lon="4.67242">
        <ele>716.92</ele>
        <time>2019-02-28T11:00:02.000Z</time>
      </trkpt>
      <trkpt lat="44.79027" lon="4.67216">
        <ele>717.86</ele>
        <time>2019-02-28T11:00:22.000Z</time>
      </trkpt>
      <trkpt lat="44.79022" lon="4.67188">
        <ele>718.79</ele>
        <time>2019-02-28T11:00:42.000Z</time>
      </trkpt>
      <trkpt lat="44.79025" lon="4.67168">
        <ele>718.92</ele>
        <time>2019-02-28T11:01:06.000Z</time>
      </trkpt>
      <trkpt lat="44.79019" lon="4.67151">
        <ele>724.09</ele>
        <time>2019-02-28T11:01:29.000Z</time>
      </trkpt>
      <trkpt lat="44.79003" lon="4.67149">
        <ele>723.42</ele>
        <time>2019-02-28T11:03:43.000Z</time>
      </trkpt>
      <trkpt lat="44.79009" lon="4.67151">
        <ele>721.86</ele>
        <time>2019-02-28T11:19:53.000Z</time>
      </trkpt>
      <trkpt lat="44.78993" lon="4.67147">
        <ele>743.86</ele>
        <time>2019-02-28T11:43:55.000Z</time>
      </trkpt>
      <trkpt lat="44.79004" lon="4.67135">
        <ele>720.61</ele>
        <time>2019-02-28T11:52:01.000Z</time>
      </trkpt>
      <trkpt lat="44.78997" lon="4.67119">
        <ele>709.62</ele>
        <time>2019-02-28T11:53:10.000Z</time>
      </trkpt>
      <trkpt lat="44.78993" lon="4.67097">
        <ele>709.9</ele>
        <time>2019-02-28T11:53:30.000Z</time>
      </trkpt>
      <trkpt lat="44.78997" lon="4.67075">
        <ele>713.74</ele>
        <time>2019-02-28T11:53:50.000Z</time>
      </trkpt>
      <trkpt lat="44.78987" lon="4.67056">
        <ele>716.67</ele>
        <time>2019-02-28T11:54:10.000Z</time>
      </trkpt>
      <trkpt lat="44.78982" lon="4.67026">
        <ele>718.85</ele>
        <time>2019-02-28T11:54:30.000Z</time>
      </trkpt>
      <trkpt lat="44.78971" lon="4.66999">
        <ele>720.85</ele>
        <time>2019-02-28T11:54:50.000Z</time>
      </trkpt>
      <trkpt lat="44.78957" lon="4.66974">
        <ele>721.29</ele>
        <time>2019-02-28T11:55:10.000Z</time>
      </trkpt>
      <trkpt lat="44.78951" lon="4.66949">
        <ele>722.49</ele>
        <time>2019-02-28T11:55:30.000Z</time>
      </trkpt>
      <trkpt lat="44.78938" lon="4.66928">
        <ele>721.86</ele>
        <time>2019-02-28T11:55:50.000Z</time>
      </trkpt>
      <trkpt lat="44.78923" lon="4.66915">
        <ele>713.35</ele>
        <time>2019-02-28T11:56:10.000Z</time>
      </trkpt>
      <trkpt lat="44.78914" lon="4.66897">
        <ele>714.04</ele>
        <time>2019-02-28T11:56:30.000Z</time>
      </trkpt>
      <trkpt lat="44.78911" lon="4.66865">
        <ele>717.86</ele>
        <time>2019-02-28T11:56:50.000Z</time>
      </trkpt>
      <trkpt lat="44.7891" lon="4.66834">
        <ele>717.54</ele>
        <time>2019-02-28T11:57:10.000Z</time>
      </trkpt>
      <trkpt lat="44.78911" lon="4.66804">
        <ele>719.33</ele>
        <time>2019-02-28T11:57:30.000Z</time>
      </trkpt>
      <trkpt lat="44.78905" lon="4.66787">
        <ele>717.78</ele>
        <time>2019-02-28T11:57:59.000Z</time>
      </trkpt>
      <trkpt lat="44.78908" lon="4.6676">
        <ele>723.83</ele>
        <time>2019-02-28T11:58:19.000Z</time>
      </trkpt>
      <trkpt lat="44.78908" lon="4.66733">
        <ele>723.91</ele>
        <time>2019-02-28T11:58:39.000Z</time>
      </trkpt>
      <trkpt lat="44.78907" lon="4.66704">
        <ele>725.54</ele>
        <time>2019-02-28T11:58:59.000Z</time>
      </trkpt>
      <trkpt lat="44.78904" lon="4.66685">
        <ele>727.41</ele>
        <time>2019-02-28T11:59:22.000Z</time>
      </trkpt>
      <trkpt lat="44.7891" lon="4.66667">
        <ele>731.16</ele>
        <time>2019-02-28T11:59:44.000Z</time>
      </trkpt>
      <trkpt lat="44.78918" lon="4.66652">
        <ele>743.51</ele>
        <time>2019-02-28T12:00:12.000Z</time>
      </trkpt>
      <trkpt lat="44.7891" lon="4.66635">
        <ele>743.29</ele>
        <time>2019-02-28T12:00:32.000Z</time>
      </trkpt>
      <trkpt lat="44.78902" lon="4.66619">
        <ele>743.28</ele>
        <time>2019-02-28T12:00:56.000Z</time>
      </trkpt>
      <trkpt lat="44.78907" lon="4.666">
        <ele>751.53</ele>
        <time>2019-02-28T12:01:30.000Z</time>
      </trkpt>
      <trkpt lat="44.78904" lon="4.66581">
        <ele>757.85</ele>
        <time>2019-02-28T12:02:00.000Z</time>
      </trkpt>
      <trkpt lat="44.78902" lon="4.66561">
        <ele>749.82</ele>
        <time>2019-02-28T12:02:53.000Z</time>
      </trkpt>
      <trkpt lat="44.78877" lon="4.66562">
        <ele>764.07</ele>
        <time>2019-02-28T12:03:13.000Z</time>
      </trkpt>
      <trkpt lat="44.78862" lon="4.66546">
        <ele>764.36</ele>
        <time>2019-02-28T12:03:33.000Z</time>
      </trkpt>
      <trkpt lat="44.78847" lon="4.66538">
        <ele>773.47</ele>
        <time>2019-02-28T12:03:53.000Z</time>
      </trkpt>
      <trkpt lat="44.78839" lon="4.66521">
        <ele>780.82</ele>
        <time>2019-02-28T12:04:20.000Z</time>
      </trkpt>
      <trkpt lat="44.78825" lon="4.66514">
        <ele>778.97</ele>
        <time>2019-02-28T12:04:40.000Z</time>
      </trkpt>
      <trkpt lat="44.78811" lon="4.6651">
        <ele>773.84</ele>
        <time>2019-02-28T12:05:07.000Z</time>
      </trkpt>
      <trkpt lat="44.78798" lon="4.66519">
        <ele>787.78</ele>
        <time>2019-02-28T12:06:05.000Z</time>
      </trkpt>
      <trkpt lat="44.78793" lon="4.66501">
        <ele>780.85</ele>
        <time>2019-02-28T12:08:07.000Z</time>
      </trkpt>
      <trkpt lat="44.78794" lon="4.66481">
        <ele>778.11</ele>
        <time>2019-02-28T12:09:06.000Z</time>
      </trkpt>
      <trkpt lat="44.78776" lon="4.66457">
        <ele>776.09</ele>
        <time>2019-02-28T12:09:26.000Z</time>
      </trkpt>
      <trkpt lat="44.78764" lon="4.66444">
        <ele>775.86</ele>
        <time>2019-02-28T12:09:46.000Z</time>
      </trkpt>
      <trkpt lat="44.78748" lon="4.66425">
        <ele>775.84</ele>
        <time>2019-02-28T12:10:06.000Z</time>
      </trkpt>
      <trkpt lat="44.78733" lon="4.66414">
        <ele>774.88</ele>
        <time>2019-02-28T12:10:26.000Z</time>
      </trkpt>
      <trkpt lat="44.78717" lon="4.66393">
        <ele>778.84</ele>
        <time>2019-02-28T12:10:46.000Z</time>
      </trkpt>
      <trkpt lat="44.78718" lon="4.66371">
        <ele>773.83</ele>
        <time>2019-02-28T12:11:06.000Z</time>
      </trkpt>
      <trkpt lat="44.78712" lon="4.66339">
        <ele>770.86</ele>
        <time>2019-02-28T12:11:26.000Z</time>
      </trkpt>
      <trkpt lat="44.78699" lon="4.66303">
        <ele>773.53</ele>
        <time>2019-02-28T12:11:46.000Z</time>
      </trkpt>
      <trkpt lat="44.78693" lon="4.6627">
        <ele>773.11</ele>
        <time>2019-02-28T12:12:06.000Z</time>
      </trkpt>
      <trkpt lat="44.78679" lon="4.66239">
        <ele>769.61</ele>
        <time>2019-02-28T12:12:26.000Z</time>
      </trkpt>
      <trkpt lat="44.78667" lon="4.66216">
        <ele>770.84</ele>
        <time>2019-02-28T12:12:46.000Z</time>
      </trkpt>
      <trkpt lat="44.78656" lon="4.66205">
        <ele>764.09</ele>
        <time>2019-02-28T12:13:06.000Z</time>
      </trkpt>
      <trkpt lat="44.7864" lon="4.66194">
        <ele>760.58</ele>
        <time>2019-02-28T12:13:26.000Z</time>
      </trkpt>
      <trkpt lat="44.78626" lon="4.66175">
        <ele>754.84</ele>
        <time>2019-02-28T12:13:46.000Z</time>
      </trkpt>
      <trkpt lat="44.7861" lon="4.66165">
        <ele>751.86</ele>
        <time>2019-02-28T12:14:06.000Z</time>
      </trkpt>
      <trkpt lat="44.78599" lon="4.66137">
        <ele>751.9</ele>
        <time>2019-02-28T12:14:26.000Z</time>
      </trkpt>
      <trkpt lat="44.78585" lon="4.66119">
        <ele>751.06</ele>
        <time>2019-02-28T12:14:46.000Z</time>
      </trkpt>
      <trkpt lat="44.78571" lon="4.66094">
        <ele>745.15</ele>
        <time>2019-02-28T12:15:06.000Z</time>
      </trkpt>
      <trkpt lat="44.78556" lon="4.66075">
        <ele>738.83</ele>
        <time>2019-02-28T12:15:26.000Z</time>
      </trkpt>
      <trkpt lat="44.78543" lon="4.6605">
        <ele>736.09</ele>
        <time>2019-02-28T12:15:46.000Z</time>
      </trkpt>
      <trkpt lat="44.78529" lon="4.66028">
        <ele>733.84</ele>
        <time>2019-02-28T12:16:06.000Z</time>
      </trkpt>
      <trkpt lat="44.7851" lon="4.66006">
        <ele>735.81</ele>
        <time>2019-02-28T12:16:26.000Z</time>
      </trkpt>
      <trkpt lat="44.78495" lon="4.65994">
        <ele>731.84</ele>
        <time>2019-02-28T12:16:46.000Z</time>
      </trkpt>
      <trkpt lat="44.78488" lon="4.65978">
        <ele>726.11</ele>
        <time>2019-02-28T12:17:07.000Z</time>
      </trkpt>
      <trkpt lat="44.78476" lon="4.65952">
        <ele>733.92</ele>
        <time>2019-02-28T12:17:27.000Z</time>
      </trkpt>
      <trkpt lat="44.78462" lon="4.65921">
        <ele>738.58</ele>
        <time>2019-02-28T12:17:47.000Z</time>
      </trkpt>
      <trkpt lat="44.78454" lon="4.65903">
        <ele>739.01</ele>
        <time>2019-02-28T12:18:07.000Z</time>
      </trkpt>
      <trkpt lat="44.78442" lon="4.65885">
        <ele>736.84</ele>
        <time>2019-02-28T12:18:27.000Z</time>
      </trkpt>
      <trkpt lat="44.78428" lon="4.65862">
        <ele>738.09</ele>
        <time>2019-02-28T12:18:47.000Z</time>
      </trkpt>
      <trkpt lat="44.78414" lon="4.65832">
        <ele>743.08</ele>
        <time>2019-02-28T12:19:07.000Z</time>
      </trkpt>
      <trkpt lat="44.784" lon="4.65806">
        <ele>736.67</ele>
        <time>2019-02-28T12:19:27.000Z</time>
      </trkpt>
      <trkpt lat="44.78394" lon="4.65776">
        <ele>734.77</ele>
        <time>2019-02-28T12:19:47.000Z</time>
      </trkpt>
      <trkpt lat="44.78384" lon="4.65753">
        <ele>743.02</ele>
        <time>2019-02-28T12:20:07.000Z</time>
      </trkpt>
      <trkpt lat="44.78371" lon="4.65732">
        <ele>744.71</ele>
        <time>2019-02-28T12:20:27.000Z</time>
      </trkpt>
      <trkpt lat="44.78355" lon="4.65703">
        <ele>746.82</ele>
        <time>2019-02-28T12:20:47.000Z</time>
      </trkpt>
      <trkpt lat="44.78344" lon="4.65675">
        <ele>747.63</ele>
        <time>2019-02-28T12:21:07.000Z</time>
      </trkpt>
      <trkpt lat="44.78338" lon="4.6564">
        <ele>751.82</ele>
        <time>2019-02-28T12:21:27.000Z</time>
      </trkpt>
      <trkpt lat="44.78328" lon="4.65611">
        <ele>747.78</ele>
        <time>2019-02-28T12:21:47.000Z</time>
      </trkpt>
      <trkpt lat="44.78323" lon="4.65576">
        <ele>751.5</ele>
        <time>2019-02-28T12:22:07.000Z</time>
      </trkpt>
      <trkpt lat="44.78322" lon="4.65548">
        <ele>756.06</ele>
        <time>2019-02-28T12:22:27.000Z</time>
      </trkpt>
      <trkpt lat="44.78326" lon="4.65528">
        <ele>759.44</ele>
        <time>2019-02-28T12:22:50.000Z</time>
      </trkpt>
      <trkpt lat="44.78325" lon="4.65508">
        <ele>760.33</ele>
        <time>2019-02-28T12:23:19.000Z</time>
      </trkpt>
      <trkpt lat="44.78332" lon="4.65491">
        <ele>761.58</ele>
        <time>2019-02-28T12:23:41.000Z</time>
      </trkpt>
      <trkpt lat="44.78335" lon="4.65472">
        <ele>764.01</ele>
        <time>2019-02-28T12:24:02.000Z</time>
      </trkpt>
      <trkpt lat="44.78348" lon="4.65456">
        <ele>768.81</ele>
        <time>2019-02-28T12:24:22.000Z</time>
      </trkpt>
      <trkpt lat="44.7836" lon="4.65435">
        <ele>778.68</ele>
        <time>2019-02-28T12:24:42.000Z</time>
      </trkpt>
      <trkpt lat="44.78354" lon="4.65417">
        <ele>779.83</ele>
        <time>2019-02-28T12:25:18.000Z</time>
      </trkpt>
      <trkpt lat="44.7834" lon="4.65392">
        <ele>784.07</ele>
        <time>2019-02-28T12:25:38.000Z</time>
      </trkpt>
      <trkpt lat="44.78327" lon="4.65384">
        <ele>778.08</ele>
        <time>2019-02-28T12:26:05.000Z</time>
      </trkpt>
      <trkpt lat="44.78309" lon="4.65353">
        <ele>785.76</ele>
        <time>2019-02-28T12:26:25.000Z</time>
      </trkpt>
      <trkpt lat="44.78289" lon="4.65329">
        <ele>782.82</ele>
        <time>2019-02-28T12:26:45.000Z</time>
      </trkpt>
      <trkpt lat="44.7827" lon="4.65297">
        <ele>782.81</ele>
        <time>2019-02-28T12:27:05.000Z</time>
      </trkpt>
      <trkpt lat="44.78253" lon="4.65268">
        <ele>783.5</ele>
        <time>2019-02-28T12:27:25.000Z</time>
      </trkpt>
      <trkpt lat="44.78237" lon="4.65243">
        <ele>787.59</ele>
        <time>2019-02-28T12:27:45.000Z</time>
      </trkpt>
      <trkpt lat="44.78221" lon="4.65216">
        <ele>791.85</ele>
        <time>2019-02-28T12:28:05.000Z</time>
      </trkpt>
      <trkpt lat="44.78206" lon="4.65197">
        <ele>798.51</ele>
        <time>2019-02-28T12:28:25.000Z</time>
      </trkpt>
      <trkpt lat="44.78188" lon="4.65176">
        <ele>799.06</ele>
        <time>2019-02-28T12:28:45.000Z</time>
      </trkpt>
      <trkpt lat="44.78171" lon="4.65152">
        <ele>802.57</ele>
        <time>2019-02-28T12:29:05.000Z</time>
      </trkpt>
      <trkpt lat="44.78152" lon="4.6513">
        <ele>799.07</ele>
        <time>2019-02-28T12:29:25.000Z</time>
      </trkpt>
      <trkpt lat="44.78139" lon="4.65105">
        <ele>797.2</ele>
        <time>2019-02-28T12:29:45.000Z</time>
      </trkpt>
      <trkpt lat="44.78124" lon="4.6508">
        <ele>795.07</ele>
        <time>2019-02-28T12:30:05.000Z</time>
      </trkpt>
      <trkpt lat="44.78112" lon="4.65045">
        <ele>794.01</ele>
        <time>2019-02-28T12:30:25.000Z</time>
      </trkpt>
      <trkpt lat="44.78099" lon="4.65015">
        <ele>795.8</ele>
        <time>2019-02-28T12:30:45.000Z</time>
      </trkpt>
      <trkpt lat="44.78082" lon="4.64986">
        <ele>793.53</ele>
        <time>2019-02-28T12:31:05.000Z</time>
      </trkpt>
      <trkpt lat="44.78065" lon="4.64961">
        <ele>797.82</ele>
        <time>2019-02-28T12:31:25.000Z</time>
      </trkpt>
      <trkpt lat="44.78049" lon="4.64943">
        <ele>796.11</ele>
        <time>2019-02-28T12:31:45.000Z</time>
      </trkpt>
      <trkpt lat="44.78028" lon="4.64921">
        <ele>799.69</ele>
        <time>2019-02-28T12:32:05.000Z</time>
      </trkpt>
      <trkpt lat="44.78004" lon="4.64903">
        <ele>804.48</ele>
        <time>2019-02-28T12:32:25.000Z</time>
      </trkpt>
      <trkpt lat="44.77989" lon="4.64885">
        <ele>808.82</ele>
        <time>2019-02-28T12:32:45.000Z</time>
      </trkpt>
      <trkpt lat="44.77974" lon="4.64871">
        <ele>807.75</ele>
        <time>2019-02-28T12:33:05.000Z</time>
      </trkpt>
      <trkpt lat="44.77952" lon="4.64858">
        <ele>809.02</ele>
        <time>2019-02-28T12:33:25.000Z</time>
      </trkpt>
      <trkpt lat="44.77942" lon="4.64845">
        <ele>803.68</ele>
        <time>2019-02-28T12:33:51.000Z</time>
      </trkpt>
      <trkpt lat="44.77925" lon="4.64837">
        <ele>808.58</ele>
        <time>2019-02-28T12:34:11.000Z</time>
      </trkpt>
      <trkpt lat="44.7791" lon="4.64817">
        <ele>810.55</ele>
        <time>2019-02-28T12:34:31.000Z</time>
      </trkpt>
      <trkpt lat="44.77895" lon="4.64788">
        <ele>812.58</ele>
        <time>2019-02-28T12:34:51.000Z</time>
      </trkpt>
      <trkpt lat="44.7788" lon="4.64761">
        <ele>807.08</ele>
        <time>2019-02-28T12:35:11.000Z</time>
      </trkpt>
      <trkpt lat="44.77873" lon="4.64723">
        <ele>805.32</ele>
        <time>2019-02-28T12:35:31.000Z</time>
      </trkpt>
      <trkpt lat="44.77859" lon="4.64692">
        <ele>808.06</ele>
        <time>2019-02-28T12:35:51.000Z</time>
      </trkpt>
      <trkpt lat="44.77845" lon="4.64657">
        <ele>811.81</ele>
        <time>2019-02-28T12:36:11.000Z</time>
      </trkpt>
      <trkpt lat="44.77836" lon="4.64626">
        <ele>809.57</ele>
        <time>2019-02-28T12:36:31.000Z</time>
      </trkpt>
      <trkpt lat="44.77825" lon="4.64601">
        <ele>807.89</ele>
        <time>2019-02-28T12:36:51.000Z</time>
      </trkpt>
      <trkpt lat="44.77815" lon="4.64571">
        <ele>810.75</ele>
        <time>2019-02-28T12:37:11.000Z</time>
      </trkpt>
      <trkpt lat="44.77806" lon="4.64541">
        <ele>812.75</ele>
        <time>2019-02-28T12:37:31.000Z</time>
      </trkpt>
      <trkpt lat="44.77793" lon="4.64512">
        <ele>810.12</ele>
        <time>2019-02-28T12:37:51.000Z</time>
      </trkpt>
      <trkpt lat="44.77778" lon="4.64477">
        <ele>807.74</ele>
        <time>2019-02-28T12:38:11.000Z</time>
      </trkpt>
      <trkpt lat="44.77765" lon="4.64454">
        <ele>804.57</ele>
        <time>2019-02-28T12:38:31.000Z</time>
      </trkpt>
      <trkpt lat="44.77758" lon="4.64423">
        <ele>805.32</ele>
        <time>2019-02-28T12:38:51.000Z</time>
      </trkpt>
      <trkpt lat="44.77749" lon="4.64393">
        <ele>801.8</ele>
        <time>2019-02-28T12:39:11.000Z</time>
      </trkpt>
      <trkpt lat="44.77728" lon="4.64382">
        <ele>796.89</ele>
        <time>2019-02-28T12:39:31.000Z</time>
      </trkpt>
      <trkpt lat="44.77708" lon="4.64383">
        <ele>790.5</ele>
        <time>2019-02-28T12:39:51.000Z</time>
      </trkpt>
      <trkpt lat="44.77693" lon="4.64362">
        <ele>796.49</ele>
        <time>2019-02-28T12:40:11.000Z</time>
      </trkpt>
      <trkpt lat="44.77671" lon="4.64342">
        <ele>796.53</ele>
        <time>2019-02-28T12:40:31.000Z</time>
      </trkpt>
      <trkpt lat="44.77654" lon="4.64322">
        <ele>795.05</ele>
        <time>2019-02-28T12:40:51.000Z</time>
      </trkpt>
      <trkpt lat="44.77634" lon="4.64299">
        <ele>797.71</ele>
        <time>2019-02-28T12:41:11.000Z</time>
      </trkpt>
      <trkpt lat="44.77615" lon="4.64283">
        <ele>789.99</ele>
        <time>2019-02-28T12:41:31.000Z</time>
      </trkpt>
      <trkpt lat="44.77594" lon="4.6426">
        <ele>793.99</ele>
        <time>2019-02-28T12:41:51.000Z</time>
      </trkpt>
      <trkpt lat="44.77573" lon="4.64236">
        <ele>789.18</ele>
        <time>2019-02-28T12:42:11.000Z</time>
      </trkpt>
      <trkpt lat="44.77552" lon="4.64212">
        <ele>788.12</ele>
        <time>2019-02-28T12:42:31.000Z</time>
      </trkpt>
      <trkpt lat="44.77537" lon="4.64185">
        <ele>785.37</ele>
        <time>2019-02-28T12:42:51.000Z</time>
      </trkpt>
      <trkpt lat="44.77521" lon="4.64156">
        <ele>788.8</ele>
        <time>2019-02-28T12:43:11.000Z</time>
      </trkpt>
      <trkpt lat="44.77502" lon="4.6413">
        <ele>782.88</ele>
        <time>2019-02-28T12:43:31.000Z</time>
      </trkpt>
      <trkpt lat="44.77482" lon="4.64105">
        <ele>776.62</ele>
        <time>2019-02-28T12:43:51.000Z</time>
      </trkpt>
      <trkpt lat="44.7746" lon="4.64088">
        <ele>779.04</ele>
        <time>2019-02-28T12:44:11.000Z</time>
      </trkpt>
      <trkpt lat="44.77437" lon="4.64071">
        <ele>775.8</ele>
        <time>2019-02-28T12:44:31.000Z</time>
      </trkpt>
      <trkpt lat="44.77424" lon="4.64042">
        <ele>776.8</ele>
        <time>2019-02-28T12:44:51.000Z</time>
      </trkpt>
      <trkpt lat="44.77411" lon="4.6402">
        <ele>774.86</ele>
        <time>2019-02-28T12:45:11.000Z</time>
      </trkpt>
      <trkpt lat="44.77399" lon="4.63998">
        <ele>781.82</ele>
        <time>2019-02-28T12:45:31.000Z</time>
      </trkpt>
      <trkpt lat="44.77387" lon="4.63976">
        <ele>783.06</ele>
        <time>2019-02-28T12:45:51.000Z</time>
      </trkpt>
      <trkpt lat="44.77378" lon="4.63955">
        <ele>787.74</ele>
        <time>2019-02-28T12:46:11.000Z</time>
      </trkpt>
      <trkpt lat="44.77366" lon="4.63937">
        <ele>787.78</ele>
        <time>2019-02-28T12:46:31.000Z</time>
      </trkpt>
      <trkpt lat="44.77358" lon="4.63918">
        <ele>789.5</ele>
        <time>2019-02-28T12:46:51.000Z</time>
      </trkpt>
      <trkpt lat="44.77341" lon="4.63899">
        <ele>785.74</ele>
        <time>2019-02-28T12:47:11.000Z</time>
      </trkpt>
      <trkpt lat="44.77331" lon="4.63875">
        <ele>790.23</ele>
        <time>2019-02-28T12:47:31.000Z</time>
      </trkpt>
      <trkpt lat="44.77313" lon="4.63851">
        <ele>789.8</ele>
        <time>2019-02-28T12:47:51.000Z</time>
      </trkpt>
      <trkpt lat="44.77292" lon="4.63836">
        <ele>791.55</ele>
        <time>2019-02-28T12:48:11.000Z</time>
      </trkpt>
      <trkpt lat="44.7727" lon="4.63826">
        <ele>788.97</ele>
        <time>2019-02-28T12:48:31.000Z</time>
      </trkpt>
      <trkpt lat="44.77252" lon="4.63801">
        <ele>789.92</ele>
        <time>2019-02-28T12:48:51.000Z</time>
      </trkpt>
      <trkpt lat="44.77247" lon="4.63772">
        <ele>787.81</ele>
        <time>2019-02-28T12:49:11.000Z</time>
      </trkpt>
      <trkpt lat="44.77241" lon="4.63745">
        <ele>784.8</ele>
        <time>2019-02-28T12:49:31.000Z</time>
      </trkpt>
      <trkpt lat="44.77225" lon="4.63719">
        <ele>787.73</ele>
        <time>2019-02-28T12:49:51.000Z</time>
      </trkpt>
      <trkpt lat="44.77213" lon="4.63688">
        <ele>788.6</ele>
        <time>2019-02-28T12:50:11.000Z</time>
      </trkpt>
      <trkpt lat="44.77203" lon="4.63659">
        <ele>789.81</ele>
        <time>2019-02-28T12:50:31.000Z</time>
      </trkpt>
      <trkpt lat="44.77194" lon="4.63629">
        <ele>787.86</ele>
        <time>2019-02-28T12:50:51.000Z</time>
      </trkpt>
      <trkpt lat="44.77187" lon="4.63597">
        <ele>788.98</ele>
        <time>2019-02-28T12:51:11.000Z</time>
      </trkpt>
      <trkpt lat="44.77181" lon="4.63566">
        <ele>792.53</ele>
        <time>2019-02-28T12:51:31.000Z</time>
      </trkpt>
      <trkpt lat="44.77175" lon="4.63536">
        <ele>789.12</ele>
        <time>2019-02-28T12:51:51.000Z</time>
      </trkpt>
      <trkpt lat="44.77168" lon="4.635">
        <ele>789.74</ele>
        <time>2019-02-28T12:52:11.000Z</time>
      </trkpt>
      <trkpt lat="44.77165" lon="4.63476">
        <ele>784.8</ele>
        <time>2019-02-28T12:52:31.000Z</time>
      </trkpt>
      <trkpt lat="44.77167" lon="4.63444">
        <ele>789.54</ele>
        <time>2019-02-28T12:52:51.000Z</time>
      </trkpt>
      <trkpt lat="44.77168" lon="4.63415">
        <ele>794.81</ele>
        <time>2019-02-28T12:53:11.000Z</time>
      </trkpt>
      <trkpt lat="44.77164" lon="4.6338">
        <ele>794.74</ele>
        <time>2019-02-28T12:53:31.000Z</time>
      </trkpt>
      <trkpt lat="44.77156" lon="4.63354">
        <ele>798.03</ele>
        <time>2019-02-28T12:53:51.000Z</time>
      </trkpt>
      <trkpt lat="44.77143" lon="4.63326">
        <ele>802.29</ele>
        <time>2019-02-28T12:54:11.000Z</time>
      </trkpt>
      <trkpt lat="44.77128" lon="4.63301">
        <ele>801.84</ele>
        <time>2019-02-28T12:54:31.000Z</time>
      </trkpt>
      <trkpt lat="44.77105" lon="4.63292">
        <ele>799.27</ele>
        <time>2019-02-28T12:54:51.000Z</time>
      </trkpt>
      <trkpt lat="44.7709" lon="4.63297">
        <ele>800.05</ele>
        <time>2019-02-28T12:55:11.000Z</time>
      </trkpt>
      <trkpt lat="44.77074" lon="4.63295">
        <ele>794.79</ele>
        <time>2019-02-28T12:55:31.000Z</time>
      </trkpt>
      <trkpt lat="44.77044" lon="4.63289">
        <ele>797.53</ele>
        <time>2019-02-28T12:55:51.000Z</time>
      </trkpt>
      <trkpt lat="44.77022" lon="4.63277">
        <ele>796.02</ele>
        <time>2019-02-28T12:56:11.000Z</time>
      </trkpt>
      <trkpt lat="44.77007" lon="4.63263">
        <ele>797.79</ele>
        <time>2019-02-28T12:56:31.000Z</time>
      </trkpt>
      <trkpt lat="44.76983" lon="4.63249">
        <ele>798.05</ele>
        <time>2019-02-28T12:56:51.000Z</time>
      </trkpt>
      <trkpt lat="44.76964" lon="4.63231">
        <ele>802.46</ele>
        <time>2019-02-28T12:57:11.000Z</time>
      </trkpt>
      <trkpt lat="44.76942" lon="4.63227">
        <ele>798.3</ele>
        <time>2019-02-28T12:57:31.000Z</time>
      </trkpt>
      <trkpt lat="44.7692" lon="4.63207">
        <ele>792.66</ele>
        <time>2019-02-28T12:57:51.000Z</time>
      </trkpt>
      <trkpt lat="44.7691" lon="4.63192">
        <ele>791.12</ele>
        <time>2019-02-28T12:58:11.000Z</time>
      </trkpt>
      <trkpt lat="44.76893" lon="4.63171">
        <ele>784.81</ele>
        <time>2019-02-28T12:58:31.000Z</time>
      </trkpt>
      <trkpt lat="44.76876" lon="4.63149">
        <ele>783.13</ele>
        <time>2019-02-28T12:58:51.000Z</time>
      </trkpt>
      <trkpt lat="44.7686" lon="4.63134">
        <ele>779.05</ele>
        <time>2019-02-28T12:59:11.000Z</time>
      </trkpt>
      <trkpt lat="44.7684" lon="4.63117">
        <ele>777.78</ele>
        <time>2019-02-28T12:59:31.000Z</time>
      </trkpt>
      <trkpt lat="44.76825" lon="4.63096">
        <ele>777.84</ele>
        <time>2019-02-28T12:59:51.000Z</time>
      </trkpt>
      <trkpt lat="44.76808" lon="4.63069">
        <ele>774.91</ele>
        <time>2019-02-28T13:00:11.000Z</time>
      </trkpt>
      <trkpt lat="44.76799" lon="4.63045">
        <ele>767.16</ele>
        <time>2019-02-28T13:00:31.000Z</time>
      </trkpt>
      <trkpt lat="44.76791" lon="4.63022">
        <ele>759.8</ele>
        <time>2019-02-28T13:00:51.000Z</time>
      </trkpt>
      <trkpt lat="44.76788" lon="4.62989">
        <ele>763.47</ele>
        <time>2019-02-28T13:01:11.000Z</time>
      </trkpt>
      <trkpt lat="44.76779" lon="4.62963">
        <ele>758.85</ele>
        <time>2019-02-28T13:01:31.000Z</time>
      </trkpt>
      <trkpt lat="44.76767" lon="4.62934">
        <ele>758.84</ele>
        <time>2019-02-28T13:01:51.000Z</time>
      </trkpt>
      <trkpt lat="44.76754" lon="4.62912">
        <ele>756.97</ele>
        <time>2019-02-28T13:02:11.000Z</time>
      </trkpt>
      <trkpt lat="44.76743" lon="4.629">
        <ele>756.29</ele>
        <time>2019-02-28T13:02:32.000Z</time>
      </trkpt>
      <trkpt lat="44.76728" lon="4.62883">
        <ele>752.83</ele>
        <time>2019-02-28T13:02:52.000Z</time>
      </trkpt>
      <trkpt lat="44.76713" lon="4.62866">
        <ele>751.82</ele>
        <time>2019-02-28T13:03:12.000Z</time>
      </trkpt>
      <trkpt lat="44.76701" lon="4.6285">
        <ele>750.8</ele>
        <time>2019-02-28T13:03:32.000Z</time>
      </trkpt>
      <trkpt lat="44.76687" lon="4.62847">
        <ele>746.68</ele>
        <time>2019-02-28T13:03:52.000Z</time>
      </trkpt>
      <trkpt lat="44.76666" lon="4.62846">
        <ele>744.77</ele>
        <time>2019-02-28T13:04:12.000Z</time>
      </trkpt>
      <trkpt lat="44.76661" lon="4.62827">
        <ele>738.1</ele>
        <time>2019-02-28T13:05:09.000Z</time>
      </trkpt>
      <trkpt lat="44.76675" lon="4.62803">
        <ele>735.77</ele>
        <time>2019-02-28T13:05:29.000Z</time>
      </trkpt>
      <trkpt lat="44.76656" lon="4.62796">
        <ele>734.59</ele>
        <time>2019-02-28T13:05:49.000Z</time>
      </trkpt>
      <trkpt lat="44.76633" lon="4.62803">
        <ele>726.1</ele>
        <time>2019-02-28T13:06:09.000Z</time>
      </trkpt>
      <trkpt lat="44.76613" lon="4.62799">
        <ele>724.78</ele>
        <time>2019-02-28T13:06:29.000Z</time>
      </trkpt>
      <trkpt lat="44.76622" lon="4.6277">
        <ele>718.98</ele>
        <time>2019-02-28T13:06:49.000Z</time>
      </trkpt>
      <trkpt lat="44.76634" lon="4.62748">
        <ele>712.75</ele>
        <time>2019-02-28T13:07:09.000Z</time>
      </trkpt>
      <trkpt lat="44.76643" lon="4.6273">
        <ele>708.53</ele>
        <time>2019-02-28T13:07:29.000Z</time>
      </trkpt>
      <trkpt lat="44.76646" lon="4.62711">
        <ele>709.53</ele>
        <time>2019-02-28T13:07:49.000Z</time>
      </trkpt>
      <trkpt lat="44.76636" lon="4.62697">
        <ele>705.17</ele>
        <time>2019-02-28T13:08:23.000Z</time>
      </trkpt>
      <trkpt lat="44.76613" lon="4.62693">
        <ele>700.12</ele>
        <time>2019-02-28T13:08:43.000Z</time>
      </trkpt>
      <trkpt lat="44.76591" lon="4.62681">
        <ele>694.09</ele>
        <time>2019-02-28T13:09:03.000Z</time>
      </trkpt>
      <trkpt lat="44.7657" lon="4.62681">
        <ele>692.81</ele>
        <time>2019-02-28T13:09:23.000Z</time>
      </trkpt>
      <trkpt lat="44.76544" lon="4.62684">
        <ele>683.03</ele>
        <time>2019-02-28T13:09:43.000Z</time>
      </trkpt>
      <trkpt lat="44.76526" lon="4.62706">
        <ele>680.59</ele>
        <time>2019-02-28T13:10:03.000Z</time>
      </trkpt>
      <trkpt lat="44.76508" lon="4.62715">
        <ele>670.7</ele>
        <time>2019-02-28T13:10:23.000Z</time>
      </trkpt>
      <trkpt lat="44.76486" lon="4.62735">
        <ele>670.52</ele>
        <time>2019-02-28T13:10:43.000Z</time>
      </trkpt>
      <trkpt lat="44.76486" lon="4.62714">
        <ele>678.98</ele>
        <time>2019-02-28T13:17:21.000Z</time>
      </trkpt>
      <trkpt lat="44.76494" lon="4.62688">
        <ele>674.76</ele>
        <time>2019-02-28T13:17:41.000Z</time>
      </trkpt>
      <trkpt lat="44.76502" lon="4.62669">
        <ele>672.02</ele>
        <time>2019-02-28T13:18:01.000Z</time>
      </trkpt>
      <trkpt lat="44.7649" lon="4.6266">
        <ele>668.03</ele>
        <time>2019-02-28T13:18:35.000Z</time>
      </trkpt>
      <trkpt lat="44.76477" lon="4.62665">
        <ele>667.66</ele>
        <time>2019-02-28T13:19:02.000Z</time>
      </trkpt>
      <trkpt lat="44.76475" lon="4.62646">
        <ele>663.84</ele>
        <time>2019-02-28T13:19:23.000Z</time>
      </trkpt>
      <trkpt lat="44.76465" lon="4.62623">
        <ele>659.08</ele>
        <time>2019-02-28T13:19:43.000Z</time>
      </trkpt>
      <trkpt lat="44.76449" lon="4.62616">
        <ele>655.97</ele>
        <time>2019-02-28T13:20:03.000Z</time>
      </trkpt>
      <trkpt lat="44.76433" lon="4.62615">
        <ele>647.54</ele>
        <time>2019-02-28T13:20:23.000Z</time>
      </trkpt>
      <trkpt lat="44.76416" lon="4.62624">
        <ele>643.53</ele>
        <time>2019-02-28T13:20:43.000Z</time>
      </trkpt>
      <trkpt lat="44.76402" lon="4.6263">
        <ele>639.71</ele>
        <time>2019-02-28T13:21:03.000Z</time>
      </trkpt>
      <trkpt lat="44.76388" lon="4.62627">
        <ele>636.86</ele>
        <time>2019-02-28T13:21:25.000Z</time>
      </trkpt>
      <trkpt lat="44.76371" lon="4.62605">
        <ele>632.78</ele>
        <time>2019-02-28T13:21:45.000Z</time>
      </trkpt>
      <trkpt lat="44.76353" lon="4.62581">
        <ele>630.71</ele>
        <time>2019-02-28T13:22:05.000Z</time>
      </trkpt>
      <trkpt lat="44.76331" lon="4.62566">
        <ele>626.03</ele>
        <time>2019-02-28T13:22:25.000Z</time>
      </trkpt>
      <trkpt lat="44.76316" lon="4.62538">
        <ele>626.78</ele>
        <time>2019-02-28T13:22:45.000Z</time>
      </trkpt>
      <trkpt lat="44.76296" lon="4.62521">
        <ele>622.04</ele>
        <time>2019-02-28T13:23:05.000Z</time>
      </trkpt>
      <trkpt lat="44.76278" lon="4.62525">
        <ele>618.97</ele>
        <time>2019-02-28T13:23:25.000Z</time>
      </trkpt>
      <trkpt lat="44.76262" lon="4.6253">
        <ele>615.96</ele>
        <time>2019-02-28T13:23:45.000Z</time>
      </trkpt>
      <trkpt lat="44.76248" lon="4.62529">
        <ele>610.33</ele>
        <time>2019-02-28T13:25:39.000Z</time>
      </trkpt>
      <trkpt lat="44.76231" lon="4.62513">
        <ele>601.83</ele>
        <time>2019-02-28T13:25:59.000Z</time>
      </trkpt>
      <trkpt lat="44.76211" lon="4.62508">
        <ele>601.97</ele>
        <time>2019-02-28T13:26:19.000Z</time>
      </trkpt>
      <trkpt lat="44.76184" lon="4.62505">
        <ele>595.02</ele>
        <time>2019-02-28T13:26:39.000Z</time>
      </trkpt>
      <trkpt lat="44.76165" lon="4.62502">
        <ele>595.61</ele>
        <time>2019-02-28T13:26:59.000Z</time>
      </trkpt>
      <trkpt lat="44.76142" lon="4.62497">
        <ele>594.03</ele>
        <time>2019-02-28T13:27:19.000Z</time>
      </trkpt>
      <trkpt lat="44.76126" lon="4.62508">
        <ele>591.27</ele>
        <time>2019-02-28T13:27:39.000Z</time>
      </trkpt>
      <trkpt lat="44.76135" lon="4.62534">
        <ele>591.57</ele>
        <time>2019-02-28T13:27:59.000Z</time>
      </trkpt>
      <trkpt lat="44.76153" lon="4.62542">
        <ele>579.08</ele>
        <time>2019-02-28T13:28:19.000Z</time>
      </trkpt>
      <trkpt lat="44.76171" lon="4.62564">
        <ele>579.76</ele>
        <time>2019-02-28T13:28:39.000Z</time>
      </trkpt>
      <trkpt lat="44.76186" lon="4.62587">
        <ele>576.6</ele>
        <time>2019-02-28T13:28:59.000Z</time>
      </trkpt>
      <trkpt lat="44.76206" lon="4.62598">
        <ele>564.78</ele>
        <time>2019-02-28T13:29:19.000Z</time>
      </trkpt>
      <trkpt lat="44.76231" lon="4.62617">
        <ele>569.9</ele>
        <time>2019-02-28T13:29:39.000Z</time>
      </trkpt>
      <trkpt lat="44.76248" lon="4.6264">
        <ele>573.6</ele>
        <time>2019-02-28T13:29:59.000Z</time>
      </trkpt>
      <trkpt lat="44.76265" lon="4.62658">
        <ele>572.27</ele>
        <time>2019-02-28T13:30:19.000Z</time>
      </trkpt>
      <trkpt lat="44.76277" lon="4.62675">
        <ele>578.59</ele>
        <time>2019-02-28T13:30:39.000Z</time>
      </trkpt>
      <trkpt lat="44.76248" lon="4.62699">
        <ele>578.53</ele>
        <time>2019-02-28T13:30:59.000Z</time>
      </trkpt>
      <trkpt lat="44.76225" lon="4.62723">
        <ele>597.95</ele>
        <time>2019-02-28T13:31:19.000Z</time>
      </trkpt>
      <trkpt lat="44.76209" lon="4.62741">
        <ele>587.54</ele>
        <time>2019-02-28T13:31:39.000Z</time>
      </trkpt>
      <trkpt lat="44.76193" lon="4.62759">
        <ele>586.82</ele>
        <time>2019-02-28T13:31:59.000Z</time>
      </trkpt>
      <trkpt lat="44.76173" lon="4.62776">
        <ele>576.83</ele>
        <time>2019-02-28T13:32:19.000Z</time>
      </trkpt>
      <trkpt lat="44.76164" lon="4.62792">
        <ele>569.11</ele>
        <time>2019-02-28T13:32:39.000Z</time>
      </trkpt>
      <trkpt lat="44.76172" lon="4.62816">
        <ele>556.87</ele>
        <time>2019-02-28T13:32:59.000Z</time>
      </trkpt>
      <trkpt lat="44.76164" lon="4.62834">
        <ele>550.79</ele>
        <time>2019-02-28T13:33:19.000Z</time>
      </trkpt>
      <trkpt lat="44.76136" lon="4.62852">
        <ele>561.95</ele>
        <time>2019-02-28T13:33:39.000Z</time>
      </trkpt>
      <trkpt lat="44.76116" lon="4.62863">
        <ele>558.22</ele>
        <time>2019-02-28T13:33:59.000Z</time>
      </trkpt>
      <trkpt lat="44.76094" lon="4.62866">
        <ele>550.78</ele>
        <time>2019-02-28T13:34:19.000Z</time>
      </trkpt>
      <trkpt lat="44.7607" lon="4.62868">
        <ele>551.78</ele>
        <time>2019-02-28T13:34:39.000Z</time>
      </trkpt>
      <trkpt lat="44.76048" lon="4.62869">
        <ele>546.77</ele>
        <time>2019-02-28T13:34:59.000Z</time>
      </trkpt>
      <trkpt lat="44.76027" lon="4.62868">
        <ele>541.05</ele>
        <time>2019-02-28T13:35:19.000Z</time>
      </trkpt>
      <trkpt lat="44.76006" lon="4.62871">
        <ele>541.58</ele>
        <time>2019-02-28T13:35:39.000Z</time>
      </trkpt>
      <trkpt lat="44.75993" lon="4.62864">
        <ele>539.03</ele>
        <time>2019-02-28T13:35:59.000Z</time>
      </trkpt>
      <trkpt lat="44.7601" lon="4.62846">
        <ele>534.86</ele>
        <time>2019-02-28T13:36:19.000Z</time>
      </trkpt>
      <trkpt lat="44.75997" lon="4.62838">
        <ele>532.44</ele>
        <time>2019-02-28T13:36:50.000Z</time>
      </trkpt>
      <trkpt lat="44.75977" lon="4.6284">
        <ele>528.18</ele>
        <time>2019-02-28T13:37:10.000Z</time>
      </trkpt>
      <trkpt lat="44.75957" lon="4.62842">
        <ele>522.91</ele>
        <time>2019-02-28T13:37:30.000Z</time>
      </trkpt>
      <trkpt lat="44.75933" lon="4.6285">
        <ele>524.43</ele>
        <time>2019-02-28T13:37:50.000Z</time>
      </trkpt>
      <trkpt lat="44.75925" lon="4.62867">
        <ele>517.35</ele>
        <time>2019-02-28T13:38:10.000Z</time>
      </trkpt>
      <trkpt lat="44.75924" lon="4.62893">
        <ele>518.8</ele>
        <time>2019-02-28T13:38:30.000Z</time>
      </trkpt>
      <trkpt lat="44.75928" lon="4.62914">
        <ele>511.77</ele>
        <time>2019-02-28T13:38:50.000Z</time>
      </trkpt>
      <trkpt lat="44.75936" lon="4.62935">
        <ele>503.03</ele>
        <time>2019-02-28T13:39:10.000Z</time>
      </trkpt>
      <trkpt lat="44.75933" lon="4.62954">
        <ele>501.96</ele>
        <time>2019-02-28T13:39:33.000Z</time>
      </trkpt>
      <trkpt lat="44.75915" lon="4.62953">
        <ele>508.86</ele>
        <time>2019-02-28T13:39:53.000Z</time>
      </trkpt>
      <trkpt lat="44.75899" lon="4.62931">
        <ele>510.63</ele>
        <time>2019-02-28T13:40:13.000Z</time>
      </trkpt>
      <trkpt lat="44.75876" lon="4.62921">
        <ele>505.3</ele>
        <time>2019-02-28T13:40:33.000Z</time>
      </trkpt>
      <trkpt lat="44.75854" lon="4.62914">
        <ele>498.36</ele>
        <time>2019-02-28T13:40:53.000Z</time>
      </trkpt>
      <trkpt lat="44.75835" lon="4.62889">
        <ele>500.11</ele>
        <time>2019-02-28T13:41:13.000Z</time>
      </trkpt>
      <trkpt lat="44.75814" lon="4.62879">
        <ele>503.83</ele>
        <time>2019-02-28T13:41:33.000Z</time>
      </trkpt>
      <trkpt lat="44.75789" lon="4.62876">
        <ele>496.05</ele>
        <time>2019-02-28T13:41:53.000Z</time>
      </trkpt>
      <trkpt lat="44.75758" lon="4.6287">
        <ele>505.97</ele>
        <time>2019-02-28T13:42:13.000Z</time>
      </trkpt>
      <trkpt lat="44.75733" lon="4.6288">
        <ele>506.1</ele>
        <time>2019-02-28T13:42:33.000Z</time>
      </trkpt>
      <trkpt lat="44.75708" lon="4.62888">
        <ele>506.04</ele>
        <time>2019-02-28T13:42:53.000Z</time>
      </trkpt>
      <trkpt lat="44.7569" lon="4.62896">
        <ele>499.6</ele>
        <time>2019-02-28T13:43:13.000Z</time>
      </trkpt>
      <trkpt lat="44.75669" lon="4.62912">
        <ele>496.79</ele>
        <time>2019-02-28T13:43:33.000Z</time>
      </trkpt>
      <trkpt lat="44.75649" lon="4.62924">
        <ele>493.75</ele>
        <time>2019-02-28T13:43:53.000Z</time>
      </trkpt>
      <trkpt lat="44.7563" lon="4.62936">
        <ele>487.32</ele>
        <time>2019-02-28T13:44:13.000Z</time>
      </trkpt>
      <trkpt lat="44.75609" lon="4.6294">
        <ele>484.83</ele>
        <time>2019-02-28T13:44:33.000Z</time>
      </trkpt>
      <trkpt lat="44.75589" lon="4.62956">
        <ele>480.54</ele>
        <time>2019-02-28T13:44:53.000Z</time>
      </trkpt>
      <trkpt lat="44.75568" lon="4.62974">
        <ele>483.29</ele>
        <time>2019-02-28T13:45:13.000Z</time>
      </trkpt>
      <trkpt lat="44.75537" lon="4.62976">
        <ele>493.73</ele>
        <time>2019-02-28T13:45:33.000Z</time>
      </trkpt>
      <trkpt lat="44.75514" lon="4.62974">
        <ele>494.54</ele>
        <time>2019-02-28T13:45:53.000Z</time>
      </trkpt>
      <trkpt lat="44.75496" lon="4.62974">
        <ele>488.11</ele>
        <time>2019-02-28T13:46:13.000Z</time>
      </trkpt>
      <trkpt lat="44.75478" lon="4.62967">
        <ele>478.85</ele>
        <time>2019-02-28T13:46:33.000Z</time>
      </trkpt>
      <trkpt lat="44.75458" lon="4.62959">
        <ele>474.11</ele>
        <time>2019-02-28T13:46:53.000Z</time>
      </trkpt>
      <trkpt lat="44.75436" lon="4.62949">
        <ele>474.72</ele>
        <time>2019-02-28T13:47:13.000Z</time>
      </trkpt>
      <trkpt lat="44.75418" lon="4.62942">
        <ele>472.79</ele>
        <time>2019-02-28T13:47:33.000Z</time>
      </trkpt>
      <trkpt lat="44.75394" lon="4.62931">
        <ele>473.79</ele>
        <time>2019-02-28T13:47:53.000Z</time>
      </trkpt>
      <trkpt lat="44.75376" lon="4.62913">
        <ele>478.54</ele>
        <time>2019-02-28T13:48:13.000Z</time>
      </trkpt>
      <trkpt lat="44.75349" lon="4.62895">
        <ele>482.22</ele>
        <time>2019-02-28T13:48:33.000Z</time>
      </trkpt>
      <trkpt lat="44.75322" lon="4.62892">
        <ele>481.8</ele>
        <time>2019-02-28T13:48:53.000Z</time>
      </trkpt>
      <trkpt lat="44.75301" lon="4.62899">
        <ele>483.85</ele>
        <time>2019-02-28T13:49:13.000Z</time>
      </trkpt>
      <trkpt lat="44.75282" lon="4.62917">
        <ele>482.76</ele>
        <time>2019-02-28T13:49:33.000Z</time>
      </trkpt>
      <trkpt lat="44.75264" lon="4.62929">
        <ele>478.79</ele>
        <time>2019-02-28T13:49:53.000Z</time>
      </trkpt>
      <trkpt lat="44.75247" lon="4.62954">
        <ele>472.06</ele>
        <time>2019-02-28T13:50:13.000Z</time>
      </trkpt>
      <trkpt lat="44.75259" lon="4.62983">
        <ele>478.84</ele>
        <time>2019-02-28T13:50:33.000Z</time>
      </trkpt>
      <trkpt lat="44.75264" lon="4.6302">
        <ele>470.95</ele>
        <time>2019-02-28T13:50:53.000Z</time>
      </trkpt>
      <trkpt lat="44.75253" lon="4.63033">
        <ele>466.74</ele>
        <time>2019-02-28T13:51:13.000Z</time>
      </trkpt>
      <trkpt lat="44.75237" lon="4.63025">
        <ele>457.96</ele>
        <time>2019-02-28T13:51:33.000Z</time>
      </trkpt>
      <trkpt lat="44.75215" lon="4.63014">
        <ele>453.07</ele>
        <time>2019-02-28T13:51:53.000Z</time>
      </trkpt>
      <trkpt lat="44.75194" lon="4.63005">
        <ele>455.73</ele>
        <time>2019-02-28T13:52:13.000Z</time>
      </trkpt>
      <trkpt lat="44.75178" lon="4.6299">
        <ele>452.68</ele>
        <time>2019-02-28T13:52:33.000Z</time>
      </trkpt>
      <trkpt lat="44.7516" lon="4.62975">
        <ele>447.96</ele>
        <time>2019-02-28T13:52:53.000Z</time>
      </trkpt>
      <trkpt lat="44.75147" lon="4.62956">
        <ele>445.62</ele>
        <time>2019-02-28T13:53:13.000Z</time>
      </trkpt>
      <trkpt lat="44.75153" lon="4.6292">
        <ele>447.84</ele>
        <time>2019-02-28T13:53:33.000Z</time>
      </trkpt>
      <trkpt lat="44.75132" lon="4.62911">
        <ele>436.48</ele>
        <time>2019-02-28T13:53:53.000Z</time>
      </trkpt>
      <trkpt lat="44.75115" lon="4.62917">
        <ele>427.87</ele>
        <time>2019-02-28T13:54:13.000Z</time>
      </trkpt>
      <trkpt lat="44.75099" lon="4.62908">
        <ele>441.73</ele>
        <time>2019-02-28T13:54:33.000Z</time>
      </trkpt>
      <trkpt lat="44.7509" lon="4.62894">
        <ele>429.82</ele>
        <time>2019-02-28T13:55:02.000Z</time>
      </trkpt>
      <trkpt lat="44.75075" lon="4.62872">
        <ele>428.56</ele>
        <time>2019-02-28T13:55:22.000Z</time>
      </trkpt>
      <trkpt lat="44.75085" lon="4.62859">
        <ele>422.96</ele>
        <time>2019-02-28T13:56:16.000Z</time>
      </trkpt>
      <trkpt lat="44.75081" lon="4.6284">
        <ele>427.02</ele>
        <time>2019-02-28T13:56:54.000Z</time>
      </trkpt>
      <trkpt lat="44.75072" lon="4.62825">
        <ele>417.79</ele>
        <time>2019-02-28T13:57:16.000Z</time>
      </trkpt>
      <trkpt lat="44.75059" lon="4.62809">
        <ele>411.5</ele>
        <time>2019-02-28T13:57:36.000Z</time>
      </trkpt>
      <trkpt lat="44.75047" lon="4.62799">
        <ele>410.78</ele>
        <time>2019-02-28T13:58:00.000Z</time>
      </trkpt>
      <trkpt lat="44.75049" lon="4.62776">
        <ele>427.96</ele>
        <time>2019-02-28T14:00:16.000Z</time>
      </trkpt>
      <trkpt lat="44.75042" lon="4.62792">
        <ele>416.85</ele>
        <time>2019-02-28T14:00:41.000Z</time>
      </trkpt>
      <trkpt lat="44.75028" lon="4.6279">
        <ele>401.78</ele>
        <time>2019-02-28T14:02:02.000Z</time>
      </trkpt>
      <trkpt lat="44.75043" lon="4.62786">
        <ele>413.19</ele>
        <time>2019-02-28T14:03:46.000Z</time>
      </trkpt>
      <trkpt lat="44.75056" lon="4.62778">
        <ele>416.85</ele>
        <time>2019-02-28T14:04:09.000Z</time>
      </trkpt>
      <trkpt lat="44.75067" lon="4.62765">
        <ele>405.54</ele>
        <time>2019-02-28T14:04:53.000Z</time>
      </trkpt>
      <trkpt lat="44.75047" lon="4.62763">
        <ele>390.73</ele>
        <time>2019-02-28T14:05:13.000Z</time>
      </trkpt>
      <trkpt lat="44.75034" lon="4.62755">
        <ele>387.1</ele>
        <time>2019-02-28T14:05:33.000Z</time>
      </trkpt>
      <trkpt lat="44.7502" lon="4.62748">
        <ele>386.11</ele>
        <time>2019-02-28T14:05:53.000Z</time>
      </trkpt>
      <trkpt lat="44.75007" lon="4.62746">
        <ele>386.79</ele>
        <time>2019-02-28T14:06:21.000Z</time>
      </trkpt>
      <trkpt lat="44.74993" lon="4.62742">
        <ele>385.86</ele>
        <time>2019-02-28T14:07:00.000Z</time>
      </trkpt>
      <trkpt lat="44.7498" lon="4.62735">
        <ele>380.79</ele>
        <time>2019-02-28T14:07:21.000Z</time>
      </trkpt>
      <trkpt lat="44.74965" lon="4.6273">
        <ele>377.71</ele>
        <time>2019-02-28T14:07:41.000Z</time>
      </trkpt>
      <trkpt lat="44.74946" lon="4.62724">
        <ele>375.81</ele>
        <time>2019-02-28T14:08:01.000Z</time>
      </trkpt>
      <trkpt lat="44.74934" lon="4.62713">
        <ele>385.41</ele>
        <time>2019-02-28T14:08:44.000Z</time>
      </trkpt>
      <trkpt lat="44.74923" lon="4.62702">
        <ele>382.96</ele>
        <time>2019-02-28T14:09:16.000Z</time>
      </trkpt>
      <trkpt lat="44.74903" lon="4.62705">
        <ele>379.05</ele>
        <time>2019-02-28T14:09:36.000Z</time>
      </trkpt>
      <trkpt lat="44.74891" lon="4.62716">
        <ele>371.8</ele>
        <time>2019-02-28T14:09:56.000Z</time>
      </trkpt>
      <trkpt lat="44.74898" lon="4.62732">
        <ele>373.85</ele>
        <time>2019-02-28T14:10:22.000Z</time>
      </trkpt>
      <trkpt lat="44.74892" lon="4.62758">
        <ele>381.8</ele>
        <time>2019-02-28T14:10:42.000Z</time>
      </trkpt>
      <trkpt lat="44.74879" lon="4.62762">
        <ele>380.74</ele>
        <time>2019-02-28T14:11:34.000Z</time>
      </trkpt>
      <trkpt lat="44.74877" lon="4.62762">
        <ele>379.79</ele>
        <time>2019-02-28T14:11:49.000Z</time>
      </trkpt>
    </trkseg>
  </trk>
</gpx>